<?xml version="1.0" encoding="UTF-8" standalone="no" ?>
<gpx xmlns="http://www.topografix.com/GPX/1/1" xmlns:xsi="http://www.w3.org/2001/XMLSchema-instance" xsi:schemaLocation="http://www.topografix.com/GPX/1/1 http://www.topografix.com/GPX/1/1/gpx.xsd" version="1.1" creator="VisuGPX - https://www.visugpx.com">
  <metadata>
    <name>83 - L - Trans en provence</name>
    <desc><![CDATA[83 - L - Trans en provence]]></desc>
  </metadata>
  <trk>
    <name><![CDATA[Trans en provence - les-demoiselles - puits aérien]]></name>
    <trkseg>
      <trkpt lat="43.5051" lon="6.48157">
        <ele>147.7</ele>
        <time>2018-03-18T13:46:14Z</time>
      </trkpt>
      <trkpt lat="43.50509" lon="6.48156">
        <ele>148.7</ele>
        <time>2018-03-18T13:46:30Z</time>
      </trkpt>
      <trkpt lat="43.50508" lon="6.48155">
        <ele>147.7</ele>
        <time>2018-03-18T13:46:41Z</time>
      </trkpt>
      <trkpt lat="43.50508" lon="6.48155">
        <ele>151.5</ele>
        <time>2018-03-18T13:46:42Z</time>
      </trkpt>
      <trkpt lat="43.50508" lon="6.48155">
        <ele>147.7</ele>
        <time>2018-03-18T13:46:44Z</time>
      </trkpt>
      <trkpt lat="43.50509" lon="6.48156">
        <ele>148.2</ele>
        <time>2018-03-18T13:46:53Z</time>
      </trkpt>
      <trkpt lat="43.50509" lon="6.48157">
        <ele>148.2</ele>
        <time>2018-03-18T13:47:10Z</time>
      </trkpt>
      <trkpt lat="43.50513" lon="6.48148">
        <ele>148.2</ele>
        <time>2018-03-18T13:47:20Z</time>
      </trkpt>
      <trkpt lat="43.50519" lon="6.48132">
        <ele>148.2</ele>
        <time>2018-03-18T13:47:31Z</time>
      </trkpt>
      <trkpt lat="43.5052" lon="6.48129">
        <ele>148.2</ele>
        <time>2018-03-18T13:47:33Z</time>
      </trkpt>
      <trkpt lat="43.50525" lon="6.48116">
        <ele>148.7</ele>
        <time>2018-03-18T13:47:42Z</time>
      </trkpt>
      <trkpt lat="43.50538" lon="6.48097">
        <ele>148.7</ele>
        <time>2018-03-18T13:47:54Z</time>
      </trkpt>
      <trkpt lat="43.50549" lon="6.48078">
        <ele>148.2</ele>
        <time>2018-03-18T13:48:05Z</time>
      </trkpt>
      <trkpt lat="43.50559" lon="6.48059">
        <ele>148.2</ele>
        <time>2018-03-18T13:48:16Z</time>
      </trkpt>
      <trkpt lat="43.50564" lon="6.48038">
        <ele>148.2</ele>
        <time>2018-03-18T13:48:27Z</time>
      </trkpt>
      <trkpt lat="43.5057" lon="6.48023">
        <ele>148.2</ele>
        <time>2018-03-18T13:48:35Z</time>
      </trkpt>
      <trkpt lat="43.50574" lon="6.48013">
        <ele>147.7</ele>
        <time>2018-03-18T13:48:41Z</time>
      </trkpt>
      <trkpt lat="43.50582" lon="6.47991">
        <ele>148.2</ele>
        <time>2018-03-18T13:48:53Z</time>
      </trkpt>
      <trkpt lat="43.50592" lon="6.47969">
        <ele>148.2</ele>
        <time>2018-03-18T13:49:06Z</time>
      </trkpt>
      <trkpt lat="43.50606" lon="6.47948">
        <ele>148.2</ele>
        <time>2018-03-18T13:49:18Z</time>
      </trkpt>
      <trkpt lat="43.50614" lon="6.47932">
        <ele>148.2</ele>
        <time>2018-03-18T13:49:27Z</time>
      </trkpt>
      <trkpt lat="43.50623" lon="6.47908">
        <ele>148.7</ele>
        <time>2018-03-18T13:49:38Z</time>
      </trkpt>
      <trkpt lat="43.50634" lon="6.47883">
        <ele>148.7</ele>
        <time>2018-03-18T13:49:51Z</time>
      </trkpt>
      <trkpt lat="43.50646" lon="6.47862">
        <ele>149.1</ele>
        <time>2018-03-18T13:50:04Z</time>
      </trkpt>
      <trkpt lat="43.50657" lon="6.47841">
        <ele>149.1</ele>
        <time>2018-03-18T13:50:15Z</time>
      </trkpt>
      <trkpt lat="43.50666" lon="6.47822">
        <ele>149.1</ele>
        <time>2018-03-18T13:50:26Z</time>
      </trkpt>
      <trkpt lat="43.50669" lon="6.47817">
        <ele>148.7</ele>
        <time>2018-03-18T13:50:30Z</time>
      </trkpt>
      <trkpt lat="43.50673" lon="6.47808">
        <ele>148.7</ele>
        <time>2018-03-18T13:50:35Z</time>
      </trkpt>
      <trkpt lat="43.50681" lon="6.4779">
        <ele>149.1</ele>
        <time>2018-03-18T13:50:46Z</time>
      </trkpt>
      <trkpt lat="43.5069" lon="6.47769">
        <ele>149.6</ele>
        <time>2018-03-18T13:50:57Z</time>
      </trkpt>
      <trkpt lat="43.50692" lon="6.47765">
        <ele>149.6</ele>
        <time>2018-03-18T13:50:59Z</time>
      </trkpt>
      <trkpt lat="43.50699" lon="6.47744">
        <ele>149.6</ele>
        <time>2018-03-18T13:51:10Z</time>
      </trkpt>
      <trkpt lat="43.50703" lon="6.47738">
        <ele>149.6</ele>
        <time>2018-03-18T13:51:15Z</time>
      </trkpt>
      <trkpt lat="43.50705" lon="6.47735">
        <ele>149.6</ele>
        <time>2018-03-18T13:51:17Z</time>
      </trkpt>
      <trkpt lat="43.50713" lon="6.47725">
        <ele>149.6</ele>
        <time>2018-03-18T13:51:25Z</time>
      </trkpt>
      <trkpt lat="43.50721" lon="6.47711">
        <ele>150.1</ele>
        <time>2018-03-18T13:51:33Z</time>
      </trkpt>
      <trkpt lat="43.50735" lon="6.47688">
        <ele>150.1</ele>
        <time>2018-03-18T13:51:47Z</time>
      </trkpt>
      <trkpt lat="43.50737" lon="6.47685">
        <ele>150.1</ele>
        <time>2018-03-18T13:51:49Z</time>
      </trkpt>
      <trkpt lat="43.50751" lon="6.47665">
        <ele>150.6</ele>
        <time>2018-03-18T13:52:02Z</time>
      </trkpt>
      <trkpt lat="43.50758" lon="6.47654">
        <ele>150.6</ele>
        <time>2018-03-18T13:52:09Z</time>
      </trkpt>
      <trkpt lat="43.50771" lon="6.47639">
        <ele>150.1</ele>
        <time>2018-03-18T13:52:20Z</time>
      </trkpt>
      <trkpt lat="43.50784" lon="6.47622">
        <ele>150.1</ele>
        <time>2018-03-18T13:52:32Z</time>
      </trkpt>
      <trkpt lat="43.50793" lon="6.47612">
        <ele>150.6</ele>
        <time>2018-03-18T13:52:41Z</time>
      </trkpt>
      <trkpt lat="43.50808" lon="6.47597">
        <ele>150.6</ele>
        <time>2018-03-18T13:52:53Z</time>
      </trkpt>
      <trkpt lat="43.50822" lon="6.47579">
        <ele>151.1</ele>
        <time>2018-03-18T13:53:05Z</time>
      </trkpt>
      <trkpt lat="43.50837" lon="6.47562">
        <ele>151.1</ele>
        <time>2018-03-18T13:53:16Z</time>
      </trkpt>
      <trkpt lat="43.50854" lon="6.47546">
        <ele>151.5</ele>
        <time>2018-03-18T13:53:29Z</time>
      </trkpt>
      <trkpt lat="43.50869" lon="6.47536">
        <ele>151.5</ele>
        <time>2018-03-18T13:53:41Z</time>
      </trkpt>
      <trkpt lat="43.50876" lon="6.47532">
        <ele>152</ele>
        <time>2018-03-18T13:53:46Z</time>
      </trkpt>
      <trkpt lat="43.50878" lon="6.47529">
        <ele>152</ele>
        <time>2018-03-18T13:53:48Z</time>
      </trkpt>
      <trkpt lat="43.50897" lon="6.47513">
        <ele>152</ele>
        <time>2018-03-18T13:54:01Z</time>
      </trkpt>
      <trkpt lat="43.50909" lon="6.47504">
        <ele>152.5</ele>
        <time>2018-03-18T13:54:11Z</time>
      </trkpt>
      <trkpt lat="43.50926" lon="6.47493">
        <ele>152.5</ele>
        <time>2018-03-18T13:54:24Z</time>
      </trkpt>
      <trkpt lat="43.50939" lon="6.47477">
        <ele>152.5</ele>
        <time>2018-03-18T13:54:36Z</time>
      </trkpt>
      <trkpt lat="43.50939" lon="6.47469">
        <ele>152.5</ele>
        <time>2018-03-18T13:54:39Z</time>
      </trkpt>
      <trkpt lat="43.50937" lon="6.4746">
        <ele>152.5</ele>
        <time>2018-03-18T13:54:43Z</time>
      </trkpt>
      <trkpt lat="43.50937" lon="6.47454">
        <ele>153</ele>
        <time>2018-03-18T13:54:47Z</time>
      </trkpt>
      <trkpt lat="43.50931" lon="6.47434">
        <ele>154.4</ele>
        <time>2018-03-18T13:54:57Z</time>
      </trkpt>
      <trkpt lat="43.50929" lon="6.47414">
        <ele>155.9</ele>
        <time>2018-03-18T13:55:07Z</time>
      </trkpt>
      <trkpt lat="43.50933" lon="6.47406">
        <ele>157.3</ele>
        <time>2018-03-18T13:55:14Z</time>
      </trkpt>
      <trkpt lat="43.50941" lon="6.47391">
        <ele>159.7</ele>
        <time>2018-03-18T13:55:26Z</time>
      </trkpt>
      <trkpt lat="43.50944" lon="6.47389">
        <ele>160.2</ele>
        <time>2018-03-18T13:55:28Z</time>
      </trkpt>
      <trkpt lat="43.50951" lon="6.47383">
        <ele>162.6</ele>
        <time>2018-03-18T13:55:36Z</time>
      </trkpt>
      <trkpt lat="43.50953" lon="6.47381">
        <ele>163.1</ele>
        <time>2018-03-18T13:55:38Z</time>
      </trkpt>
      <trkpt lat="43.50954" lon="6.4738">
        <ele>163.6</ele>
        <time>2018-03-18T13:55:40Z</time>
      </trkpt>
      <trkpt lat="43.50961" lon="6.47371">
        <ele>165.5</ele>
        <time>2018-03-18T13:55:49Z</time>
      </trkpt>
      <trkpt lat="43.50971" lon="6.47365">
        <ele>166.9</ele>
        <time>2018-03-18T13:55:57Z</time>
      </trkpt>
      <trkpt lat="43.50973" lon="6.47363">
        <ele>167.4</ele>
        <time>2018-03-18T13:55:59Z</time>
      </trkpt>
      <trkpt lat="43.50979" lon="6.47359">
        <ele>168.9</ele>
        <time>2018-03-18T13:56:05Z</time>
      </trkpt>
      <trkpt lat="43.50993" lon="6.47345">
        <ele>170.3</ele>
        <time>2018-03-18T13:56:18Z</time>
      </trkpt>
      <trkpt lat="43.50996" lon="6.47344">
        <ele>170.8</ele>
        <time>2018-03-18T13:56:21Z</time>
      </trkpt>
      <trkpt lat="43.51009" lon="6.47331">
        <ele>173.7</ele>
        <time>2018-03-18T13:56:33Z</time>
      </trkpt>
      <trkpt lat="43.51019" lon="6.47322">
        <ele>176.1</ele>
        <time>2018-03-18T13:56:43Z</time>
      </trkpt>
      <trkpt lat="43.51028" lon="6.47313">
        <ele>178.9</ele>
        <time>2018-03-18T13:56:53Z</time>
      </trkpt>
      <trkpt lat="43.51026" lon="6.47305">
        <ele>179.9</ele>
        <time>2018-03-18T13:57:00Z</time>
      </trkpt>
      <trkpt lat="43.51013" lon="6.47298">
        <ele>179.9</ele>
        <time>2018-03-18T13:57:10Z</time>
      </trkpt>
      <trkpt lat="43.51004" lon="6.47293">
        <ele>180.9</ele>
        <time>2018-03-18T13:57:16Z</time>
      </trkpt>
      <trkpt lat="43.50992" lon="6.47284">
        <ele>181.8</ele>
        <time>2018-03-18T13:57:26Z</time>
      </trkpt>
      <trkpt lat="43.50984" lon="6.4728">
        <ele>182.8</ele>
        <time>2018-03-18T13:57:33Z</time>
      </trkpt>
      <trkpt lat="43.50972" lon="6.47278">
        <ele>184.7</ele>
        <time>2018-03-18T13:57:42Z</time>
      </trkpt>
      <trkpt lat="43.50958" lon="6.4728">
        <ele>187.6</ele>
        <time>2018-03-18T13:57:53Z</time>
      </trkpt>
      <trkpt lat="43.50945" lon="6.47284">
        <ele>190.5</ele>
        <time>2018-03-18T13:58:04Z</time>
      </trkpt>
      <trkpt lat="43.50939" lon="6.47285">
        <ele>191.9</ele>
        <time>2018-03-18T13:58:09Z</time>
      </trkpt>
      <trkpt lat="43.50933" lon="6.47286">
        <ele>193.4</ele>
        <time>2018-03-18T13:58:16Z</time>
      </trkpt>
      <trkpt lat="43.50921" lon="6.4728">
        <ele>195.3</ele>
        <time>2018-03-18T13:58:26Z</time>
      </trkpt>
      <trkpt lat="43.50907" lon="6.4727">
        <ele>196.7</ele>
        <time>2018-03-18T13:58:38Z</time>
      </trkpt>
      <trkpt lat="43.50903" lon="6.47267">
        <ele>197.2</ele>
        <time>2018-03-18T13:58:41Z</time>
      </trkpt>
      <trkpt lat="43.50885" lon="6.47259">
        <ele>198.2</ele>
        <time>2018-03-18T13:58:52Z</time>
      </trkpt>
      <trkpt lat="43.50873" lon="6.47254">
        <ele>198.2</ele>
        <time>2018-03-18T13:59:01Z</time>
      </trkpt>
      <trkpt lat="43.50865" lon="6.47254">
        <ele>197.7</ele>
        <time>2018-03-18T13:59:11Z</time>
      </trkpt>
      <trkpt lat="43.50859" lon="6.4725">
        <ele>198.2</ele>
        <time>2018-03-18T13:59:17Z</time>
      </trkpt>
      <trkpt lat="43.50854" lon="6.47242">
        <ele>198.6</ele>
        <time>2018-03-18T13:59:23Z</time>
      </trkpt>
      <trkpt lat="43.50848" lon="6.47229">
        <ele>200.6</ele>
        <time>2018-03-18T13:59:33Z</time>
      </trkpt>
      <trkpt lat="43.50847" lon="6.47226">
        <ele>201.1</ele>
        <time>2018-03-18T13:59:35Z</time>
      </trkpt>
      <trkpt lat="43.50843" lon="6.47216">
        <ele>203</ele>
        <time>2018-03-18T13:59:43Z</time>
      </trkpt>
      <trkpt lat="43.5084" lon="6.47202">
        <ele>203.9</ele>
        <time>2018-03-18T13:59:52Z</time>
      </trkpt>
      <trkpt lat="43.50839" lon="6.47199">
        <ele>203.9</ele>
        <time>2018-03-18T13:59:54Z</time>
      </trkpt>
      <trkpt lat="43.50839" lon="6.47192">
        <ele>203.9</ele>
        <time>2018-03-18T13:59:58Z</time>
      </trkpt>
      <trkpt lat="43.50838" lon="6.47186">
        <ele>204.4</ele>
        <time>2018-03-18T14:00:01Z</time>
      </trkpt>
      <trkpt lat="43.50837" lon="6.47172">
        <ele>203.9</ele>
        <time>2018-03-18T14:00:09Z</time>
      </trkpt>
      <trkpt lat="43.50834" lon="6.47156">
        <ele>203.9</ele>
        <time>2018-03-18T14:00:20Z</time>
      </trkpt>
      <trkpt lat="43.50829" lon="6.47137">
        <ele>202.5</ele>
        <time>2018-03-18T14:00:31Z</time>
      </trkpt>
      <trkpt lat="43.50825" lon="6.47122">
        <ele>202.5</ele>
        <time>2018-03-18T14:00:41Z</time>
      </trkpt>
      <trkpt lat="43.50818" lon="6.47105">
        <ele>203.5</ele>
        <time>2018-03-18T14:00:53Z</time>
      </trkpt>
      <trkpt lat="43.50808" lon="6.47106">
        <ele>202.5</ele>
        <time>2018-03-18T14:01:03Z</time>
      </trkpt>
      <trkpt lat="43.50799" lon="6.47107">
        <ele>202</ele>
        <time>2018-03-18T14:01:12Z</time>
      </trkpt>
      <trkpt lat="43.50791" lon="6.47109">
        <ele>202.5</ele>
        <time>2018-03-18T14:01:20Z</time>
      </trkpt>
      <trkpt lat="43.50778" lon="6.47116">
        <ele>203</ele>
        <time>2018-03-18T14:01:30Z</time>
      </trkpt>
      <trkpt lat="43.50768" lon="6.47125">
        <ele>203</ele>
        <time>2018-03-18T14:01:39Z</time>
      </trkpt>
      <trkpt lat="43.50759" lon="6.47132">
        <ele>203.5</ele>
        <time>2018-03-18T14:01:48Z</time>
      </trkpt>
      <trkpt lat="43.50753" lon="6.47134">
        <ele>203.5</ele>
        <time>2018-03-18T14:01:58Z</time>
      </trkpt>
      <trkpt lat="43.50748" lon="6.47135">
        <ele>203.5</ele>
        <time>2018-03-18T14:02:07Z</time>
      </trkpt>
      <trkpt lat="43.50741" lon="6.47136">
        <ele>203.9</ele>
        <time>2018-03-18T14:02:17Z</time>
      </trkpt>
      <trkpt lat="43.50734" lon="6.47135">
        <ele>204.4</ele>
        <time>2018-03-18T14:02:25Z</time>
      </trkpt>
      <trkpt lat="43.50727" lon="6.47134">
        <ele>204.9</ele>
        <time>2018-03-18T14:02:38Z</time>
      </trkpt>
      <trkpt lat="43.50721" lon="6.4713">
        <ele>205.4</ele>
        <time>2018-03-18T14:02:50Z</time>
      </trkpt>
      <trkpt lat="43.50712" lon="6.47124">
        <ele>207.3</ele>
        <time>2018-03-18T14:03:00Z</time>
      </trkpt>
      <trkpt lat="43.50707" lon="6.47121">
        <ele>207.8</ele>
        <time>2018-03-18T14:03:04Z</time>
      </trkpt>
      <trkpt lat="43.50703" lon="6.47121">
        <ele>208.7</ele>
        <time>2018-03-18T14:03:09Z</time>
      </trkpt>
      <trkpt lat="43.5069" lon="6.47113">
        <ele>210.7</ele>
        <time>2018-03-18T14:03:20Z</time>
      </trkpt>
      <trkpt lat="43.50674" lon="6.47098">
        <ele>213.1</ele>
        <time>2018-03-18T14:03:34Z</time>
      </trkpt>
      <trkpt lat="43.50671" lon="6.47093">
        <ele>214</ele>
        <time>2018-03-18T14:03:38Z</time>
      </trkpt>
      <trkpt lat="43.5067" lon="6.47093">
        <ele>214.5</ele>
        <time>2018-03-18T14:03:39Z</time>
      </trkpt>
      <trkpt lat="43.50661" lon="6.47093">
        <ele>215</ele>
        <time>2018-03-18T14:03:47Z</time>
      </trkpt>
      <trkpt lat="43.50658" lon="6.47097">
        <ele>215</ele>
        <time>2018-03-18T14:03:50Z</time>
      </trkpt>
      <trkpt lat="43.50647" lon="6.47114">
        <ele>215</ele>
        <time>2018-03-18T14:04:02Z</time>
      </trkpt>
      <trkpt lat="43.50637" lon="6.47132">
        <ele>215</ele>
        <time>2018-03-18T14:04:14Z</time>
      </trkpt>
      <trkpt lat="43.50627" lon="6.47147">
        <ele>214</ele>
        <time>2018-03-18T14:04:23Z</time>
      </trkpt>
      <trkpt lat="43.50622" lon="6.47156">
        <ele>213.6</ele>
        <time>2018-03-18T14:04:28Z</time>
      </trkpt>
      <trkpt lat="43.50617" lon="6.47164">
        <ele>213.1</ele>
        <time>2018-03-18T14:04:33Z</time>
      </trkpt>
      <trkpt lat="43.50607" lon="6.47188">
        <ele>212.6</ele>
        <time>2018-03-18T14:04:46Z</time>
      </trkpt>
      <trkpt lat="43.50607" lon="6.47192">
        <ele>212.6</ele>
        <time>2018-03-18T14:04:48Z</time>
      </trkpt>
      <trkpt lat="43.50611" lon="6.47205">
        <ele>212.1</ele>
        <time>2018-03-18T14:04:55Z</time>
      </trkpt>
      <trkpt lat="43.50617" lon="6.47223">
        <ele>211.6</ele>
        <time>2018-03-18T14:05:02Z</time>
      </trkpt>
      <trkpt lat="43.5062" lon="6.47239">
        <ele>211.6</ele>
        <time>2018-03-18T14:05:10Z</time>
      </trkpt>
      <trkpt lat="43.50624" lon="6.47249">
        <ele>211.1</ele>
        <time>2018-03-18T14:05:17Z</time>
      </trkpt>
      <trkpt lat="43.50627" lon="6.4726">
        <ele>211.6</ele>
        <time>2018-03-18T14:05:23Z</time>
      </trkpt>
      <trkpt lat="43.50623" lon="6.47279">
        <ele>210.7</ele>
        <time>2018-03-18T14:05:32Z</time>
      </trkpt>
      <trkpt lat="43.50622" lon="6.47284">
        <ele>209.7</ele>
        <time>2018-03-18T14:05:35Z</time>
      </trkpt>
      <trkpt lat="43.50621" lon="6.47302">
        <ele>208.7</ele>
        <time>2018-03-18T14:05:44Z</time>
      </trkpt>
      <trkpt lat="43.5062" lon="6.47312">
        <ele>208.3</ele>
        <time>2018-03-18T14:05:49Z</time>
      </trkpt>
      <trkpt lat="43.5062" lon="6.47321">
        <ele>207.8</ele>
        <time>2018-03-18T14:05:53Z</time>
      </trkpt>
      <trkpt lat="43.5062" lon="6.47332">
        <ele>207.3</ele>
        <time>2018-03-18T14:05:58Z</time>
      </trkpt>
      <trkpt lat="43.5062" lon="6.47349">
        <ele>206.3</ele>
        <time>2018-03-18T14:06:06Z</time>
      </trkpt>
      <trkpt lat="43.5062" lon="6.47361">
        <ele>206.8</ele>
        <time>2018-03-18T14:06:12Z</time>
      </trkpt>
      <trkpt lat="43.5062" lon="6.4737">
        <ele>206.3</ele>
        <time>2018-03-18T14:06:16Z</time>
      </trkpt>
      <trkpt lat="43.50615" lon="6.474">
        <ele>206.8</ele>
        <time>2018-03-18T14:06:30Z</time>
      </trkpt>
      <trkpt lat="43.50613" lon="6.47425">
        <ele>206.3</ele>
        <time>2018-03-18T14:06:44Z</time>
      </trkpt>
      <trkpt lat="43.50612" lon="6.47434">
        <ele>206.3</ele>
        <time>2018-03-18T14:06:48Z</time>
      </trkpt>
      <trkpt lat="43.5061" lon="6.47444">
        <ele>207.3</ele>
        <time>2018-03-18T14:06:53Z</time>
      </trkpt>
      <trkpt lat="43.50608" lon="6.47451">
        <ele>206.3</ele>
        <time>2018-03-18T14:06:56Z</time>
      </trkpt>
      <trkpt lat="43.50603" lon="6.47468">
        <ele>206.3</ele>
        <time>2018-03-18T14:07:05Z</time>
      </trkpt>
      <trkpt lat="43.50596" lon="6.4749">
        <ele>206.8</ele>
        <time>2018-03-18T14:07:15Z</time>
      </trkpt>
      <trkpt lat="43.50595" lon="6.47492">
        <ele>211.1</ele>
        <time>2018-03-18T14:07:16Z</time>
      </trkpt>
      <trkpt lat="43.50594" lon="6.47494">
        <ele>200.6</ele>
        <time>2018-03-18T14:07:17Z</time>
      </trkpt>
      <trkpt lat="43.50589" lon="6.47502">
        <ele>206.3</ele>
        <time>2018-03-18T14:07:21Z</time>
      </trkpt>
      <trkpt lat="43.50584" lon="6.47521">
        <ele>206.8</ele>
        <time>2018-03-18T14:07:30Z</time>
      </trkpt>
      <trkpt lat="43.50579" lon="6.47546">
        <ele>206.8</ele>
        <time>2018-03-18T14:07:42Z</time>
      </trkpt>
      <trkpt lat="43.50577" lon="6.47561">
        <ele>206.8</ele>
        <time>2018-03-18T14:07:50Z</time>
      </trkpt>
      <trkpt lat="43.50576" lon="6.47569">
        <ele>206.8</ele>
        <time>2018-03-18T14:07:54Z</time>
      </trkpt>
      <trkpt lat="43.50576" lon="6.47571">
        <ele>206.8</ele>
        <time>2018-03-18T14:07:55Z</time>
      </trkpt>
      <trkpt lat="43.50573" lon="6.47589">
        <ele>206.8</ele>
        <time>2018-03-18T14:08:05Z</time>
      </trkpt>
      <trkpt lat="43.50573" lon="6.47592">
        <ele>206.8</ele>
        <time>2018-03-18T14:08:07Z</time>
      </trkpt>
      <trkpt lat="43.50571" lon="6.47614">
        <ele>207.3</ele>
        <time>2018-03-18T14:08:17Z</time>
      </trkpt>
      <trkpt lat="43.50568" lon="6.47618">
        <ele>206.8</ele>
        <time>2018-03-18T14:08:20Z</time>
      </trkpt>
      <trkpt lat="43.50566" lon="6.47622">
        <ele>207.3</ele>
        <time>2018-03-18T14:08:23Z</time>
      </trkpt>
      <trkpt lat="43.50564" lon="6.47631">
        <ele>207.3</ele>
        <time>2018-03-18T14:08:28Z</time>
      </trkpt>
      <trkpt lat="43.50564" lon="6.47634">
        <ele>207.3</ele>
        <time>2018-03-18T14:08:29Z</time>
      </trkpt>
      <trkpt lat="43.50562" lon="6.47649">
        <ele>207.8</ele>
        <time>2018-03-18T14:08:38Z</time>
      </trkpt>
      <trkpt lat="43.50561" lon="6.47651">
        <ele>207.8</ele>
        <time>2018-03-18T14:08:40Z</time>
      </trkpt>
      <trkpt lat="43.50558" lon="6.47669">
        <ele>208.7</ele>
        <time>2018-03-18T14:08:50Z</time>
      </trkpt>
      <trkpt lat="43.50551" lon="6.4769">
        <ele>208.7</ele>
        <time>2018-03-18T14:09:02Z</time>
      </trkpt>
      <trkpt lat="43.50548" lon="6.47701">
        <ele>209.2</ele>
        <time>2018-03-18T14:09:08Z</time>
      </trkpt>
      <trkpt lat="43.50547" lon="6.47702">
        <ele>209.2</ele>
        <time>2018-03-18T14:09:09Z</time>
      </trkpt>
      <trkpt lat="43.50543" lon="6.47723">
        <ele>209.2</ele>
        <time>2018-03-18T14:09:20Z</time>
      </trkpt>
      <trkpt lat="43.50539" lon="6.47743">
        <ele>209.7</ele>
        <time>2018-03-18T14:09:31Z</time>
      </trkpt>
      <trkpt lat="43.50537" lon="6.47751">
        <ele>209.7</ele>
        <time>2018-03-18T14:09:36Z</time>
      </trkpt>
      <trkpt lat="43.50531" lon="6.47772">
        <ele>209.7</ele>
        <time>2018-03-18T14:09:48Z</time>
      </trkpt>
      <trkpt lat="43.50529" lon="6.47778">
        <ele>210.2</ele>
        <time>2018-03-18T14:09:52Z</time>
      </trkpt>
      <trkpt lat="43.50522" lon="6.47791">
        <ele>210.2</ele>
        <time>2018-03-18T14:10:00Z</time>
      </trkpt>
      <trkpt lat="43.50514" lon="6.47803">
        <ele>210.2</ele>
        <time>2018-03-18T14:10:10Z</time>
      </trkpt>
      <trkpt lat="43.50505" lon="6.47817">
        <ele>209.2</ele>
        <time>2018-03-18T14:10:20Z</time>
      </trkpt>
      <trkpt lat="43.50494" lon="6.47829">
        <ele>209.2</ele>
        <time>2018-03-18T14:10:29Z</time>
      </trkpt>
      <trkpt lat="43.50483" lon="6.47838">
        <ele>208.3</ele>
        <time>2018-03-18T14:10:39Z</time>
      </trkpt>
      <trkpt lat="43.5047" lon="6.47846">
        <ele>206.8</ele>
        <time>2018-03-18T14:10:50Z</time>
      </trkpt>
      <trkpt lat="43.50457" lon="6.47859">
        <ele>205.4</ele>
        <time>2018-03-18T14:11:01Z</time>
      </trkpt>
      <trkpt lat="43.50449" lon="6.47867">
        <ele>204.9</ele>
        <time>2018-03-18T14:11:08Z</time>
      </trkpt>
      <trkpt lat="43.50447" lon="6.47869">
        <ele>204.9</ele>
        <time>2018-03-18T14:11:10Z</time>
      </trkpt>
      <trkpt lat="43.50439" lon="6.47886">
        <ele>203.5</ele>
        <time>2018-03-18T14:11:20Z</time>
      </trkpt>
      <trkpt lat="43.50437" lon="6.4789">
        <ele>203.5</ele>
        <time>2018-03-18T14:11:23Z</time>
      </trkpt>
      <trkpt lat="43.50426" lon="6.47912">
        <ele>203</ele>
        <time>2018-03-18T14:11:37Z</time>
      </trkpt>
      <trkpt lat="43.50421" lon="6.47927">
        <ele>203</ele>
        <time>2018-03-18T14:11:45Z</time>
      </trkpt>
      <trkpt lat="43.50416" lon="6.47937">
        <ele>202.5</ele>
        <time>2018-03-18T14:11:51Z</time>
      </trkpt>
      <trkpt lat="43.50414" lon="6.4794">
        <ele>202.5</ele>
        <time>2018-03-18T14:11:53Z</time>
      </trkpt>
      <trkpt lat="43.50405" lon="6.47956">
        <ele>202.5</ele>
        <time>2018-03-18T14:12:03Z</time>
      </trkpt>
      <trkpt lat="43.50397" lon="6.47973">
        <ele>202</ele>
        <time>2018-03-18T14:12:13Z</time>
      </trkpt>
      <trkpt lat="43.50392" lon="6.47979">
        <ele>202</ele>
        <time>2018-03-18T14:12:18Z</time>
      </trkpt>
      <trkpt lat="43.5039" lon="6.47984">
        <ele>202.5</ele>
        <time>2018-03-18T14:12:21Z</time>
      </trkpt>
      <trkpt lat="43.50385" lon="6.47994">
        <ele>202</ele>
        <time>2018-03-18T14:12:26Z</time>
      </trkpt>
      <trkpt lat="43.50382" lon="6.48014">
        <ele>202</ele>
        <time>2018-03-18T14:12:36Z</time>
      </trkpt>
      <trkpt lat="43.50378" lon="6.48026">
        <ele>202.5</ele>
        <time>2018-03-18T14:12:43Z</time>
      </trkpt>
      <trkpt lat="43.50377" lon="6.48033">
        <ele>202.5</ele>
        <time>2018-03-18T14:12:47Z</time>
      </trkpt>
      <trkpt lat="43.50373" lon="6.48045">
        <ele>203.5</ele>
        <time>2018-03-18T14:12:54Z</time>
      </trkpt>
      <trkpt lat="43.50362" lon="6.48062">
        <ele>201.1</ele>
        <time>2018-03-18T14:13:06Z</time>
      </trkpt>
      <trkpt lat="43.50348" lon="6.48067">
        <ele>198.6</ele>
        <time>2018-03-18T14:13:17Z</time>
      </trkpt>
      <trkpt lat="43.50339" lon="6.48073">
        <ele>197.7</ele>
        <time>2018-03-18T14:13:25Z</time>
      </trkpt>
      <trkpt lat="43.50328" lon="6.48078">
        <ele>196.3</ele>
        <time>2018-03-18T14:13:34Z</time>
      </trkpt>
      <trkpt lat="43.50322" lon="6.48082">
        <ele>195.3</ele>
        <time>2018-03-18T14:13:40Z</time>
      </trkpt>
      <trkpt lat="43.5031" lon="6.48092">
        <ele>193.8</ele>
        <time>2018-03-18T14:13:51Z</time>
      </trkpt>
      <trkpt lat="43.50307" lon="6.48095">
        <ele>193.4</ele>
        <time>2018-03-18T14:13:54Z</time>
      </trkpt>
      <trkpt lat="43.50295" lon="6.48107">
        <ele>191.4</ele>
        <time>2018-03-18T14:14:05Z</time>
      </trkpt>
      <trkpt lat="43.50288" lon="6.48108">
        <ele>190.5</ele>
        <time>2018-03-18T14:14:11Z</time>
      </trkpt>
      <trkpt lat="43.50275" lon="6.48102">
        <ele>188.1</ele>
        <time>2018-03-18T14:14:23Z</time>
      </trkpt>
      <trkpt lat="43.50269" lon="6.481">
        <ele>187.6</ele>
        <time>2018-03-18T14:14:28Z</time>
      </trkpt>
      <trkpt lat="43.5026" lon="6.48108">
        <ele>185.7</ele>
        <time>2018-03-18T14:14:39Z</time>
      </trkpt>
      <trkpt lat="43.50255" lon="6.48114">
        <ele>184.2</ele>
        <time>2018-03-18T14:14:45Z</time>
      </trkpt>
      <trkpt lat="43.50249" lon="6.48124">
        <ele>183.3</ele>
        <time>2018-03-18T14:14:53Z</time>
      </trkpt>
      <trkpt lat="43.50246" lon="6.4813">
        <ele>181.4</ele>
        <time>2018-03-18T14:14:59Z</time>
      </trkpt>
      <trkpt lat="43.50235" lon="6.48138">
        <ele>178.9</ele>
        <time>2018-03-18T14:15:10Z</time>
      </trkpt>
      <trkpt lat="43.5023" lon="6.48148">
        <ele>177</ele>
        <time>2018-03-18T14:15:19Z</time>
      </trkpt>
      <trkpt lat="43.50225" lon="6.4816">
        <ele>175.1</ele>
        <time>2018-03-18T14:15:28Z</time>
      </trkpt>
      <trkpt lat="43.50224" lon="6.48167">
        <ele>174.1</ele>
        <time>2018-03-18T14:15:33Z</time>
      </trkpt>
      <trkpt lat="43.50224" lon="6.48172">
        <ele>173.7</ele>
        <time>2018-03-18T14:15:37Z</time>
      </trkpt>
      <trkpt lat="43.50226" lon="6.4819">
        <ele>172.2</ele>
        <time>2018-03-18T14:15:48Z</time>
      </trkpt>
      <trkpt lat="43.50227" lon="6.48205">
        <ele>171.3</ele>
        <time>2018-03-18T14:15:59Z</time>
      </trkpt>
      <trkpt lat="43.50222" lon="6.48201">
        <ele>170.3</ele>
        <time>2018-03-18T14:16:06Z</time>
      </trkpt>
      <trkpt lat="43.50219" lon="6.48192">
        <ele>170.3</ele>
        <time>2018-03-18T14:16:12Z</time>
      </trkpt>
      <trkpt lat="43.50219" lon="6.48186">
        <ele>170.3</ele>
        <time>2018-03-18T14:16:16Z</time>
      </trkpt>
      <trkpt lat="43.5022" lon="6.48186">
        <ele>170.8</ele>
        <time>2018-03-18T14:16:24Z</time>
      </trkpt>
      <trkpt lat="43.5022" lon="6.48187">
        <ele>170.3</ele>
        <time>2018-03-18T14:16:36Z</time>
      </trkpt>
      <trkpt lat="43.50217" lon="6.48176">
        <ele>170.3</ele>
        <time>2018-03-18T14:16:47Z</time>
      </trkpt>
      <trkpt lat="43.50222" lon="6.48191">
        <ele>170.8</ele>
        <time>2018-03-18T14:17:19Z</time>
      </trkpt>
      <trkpt lat="43.50222" lon="6.48199">
        <ele>170.8</ele>
        <time>2018-03-18T14:17:28Z</time>
      </trkpt>
      <trkpt lat="43.50226" lon="6.48205">
        <ele>170.8</ele>
        <time>2018-03-18T14:17:37Z</time>
      </trkpt>
      <trkpt lat="43.50227" lon="6.48205">
        <ele>170.8</ele>
        <time>2018-03-18T14:17:41Z</time>
      </trkpt>
      <trkpt lat="43.50227" lon="6.48199">
        <ele>171.7</ele>
        <time>2018-03-18T14:17:51Z</time>
      </trkpt>
      <trkpt lat="43.50226" lon="6.48191">
        <ele>172.2</ele>
        <time>2018-03-18T14:17:56Z</time>
      </trkpt>
      <trkpt lat="43.50222" lon="6.48178">
        <ele>173.2</ele>
        <time>2018-03-18T14:18:05Z</time>
      </trkpt>
      <trkpt lat="43.5022" lon="6.48174">
        <ele>173.2</ele>
        <time>2018-03-18T14:18:15Z</time>
      </trkpt>
      <trkpt lat="43.50209" lon="6.48165">
        <ele>172.7</ele>
        <time>2018-03-18T14:18:26Z</time>
      </trkpt>
      <trkpt lat="43.50208" lon="6.48164">
        <ele>172.7</ele>
        <time>2018-03-18T14:18:27Z</time>
      </trkpt>
      <trkpt lat="43.50199" lon="6.48159">
        <ele>172.7</ele>
        <time>2018-03-18T14:18:39Z</time>
      </trkpt>
      <trkpt lat="43.50193" lon="6.48156">
        <ele>172.2</ele>
        <time>2018-03-18T14:18:43Z</time>
      </trkpt>
      <trkpt lat="43.50182" lon="6.48148">
        <ele>170.8</ele>
        <time>2018-03-18T14:18:54Z</time>
      </trkpt>
      <trkpt lat="43.50179" lon="6.48147">
        <ele>169.8</ele>
        <time>2018-03-18T14:18:57Z</time>
      </trkpt>
      <trkpt lat="43.50167" lon="6.4814">
        <ele>167.4</ele>
        <time>2018-03-18T14:19:06Z</time>
      </trkpt>
      <trkpt lat="43.50156" lon="6.48134">
        <ele>165</ele>
        <time>2018-03-18T14:19:19Z</time>
      </trkpt>
      <trkpt lat="43.50149" lon="6.48132">
        <ele>164</ele>
        <time>2018-03-18T14:19:25Z</time>
      </trkpt>
      <trkpt lat="43.50144" lon="6.48129">
        <ele>163.6</ele>
        <time>2018-03-18T14:19:33Z</time>
      </trkpt>
      <trkpt lat="43.50135" lon="6.48124">
        <ele>161.2</ele>
        <time>2018-03-18T14:19:44Z</time>
      </trkpt>
      <trkpt lat="43.50136" lon="6.48121">
        <ele>161.6</ele>
        <time>2018-03-18T14:19:50Z</time>
      </trkpt>
      <trkpt lat="43.50134" lon="6.48119">
        <ele>160.7</ele>
        <time>2018-03-18T14:19:58Z</time>
      </trkpt>
      <trkpt lat="43.50131" lon="6.48113">
        <ele>161.2</ele>
        <time>2018-03-18T14:20:09Z</time>
      </trkpt>
      <trkpt lat="43.50129" lon="6.48095">
        <ele>160.7</ele>
        <time>2018-03-18T14:20:20Z</time>
      </trkpt>
      <trkpt lat="43.50128" lon="6.48079">
        <ele>160.7</ele>
        <time>2018-03-18T14:20:28Z</time>
      </trkpt>
      <trkpt lat="43.50129" lon="6.48061">
        <ele>161.2</ele>
        <time>2018-03-18T14:20:38Z</time>
      </trkpt>
      <trkpt lat="43.5013" lon="6.48055">
        <ele>161.6</ele>
        <time>2018-03-18T14:20:41Z</time>
      </trkpt>
      <trkpt lat="43.50137" lon="6.48038">
        <ele>162.1</ele>
        <time>2018-03-18T14:20:50Z</time>
      </trkpt>
      <trkpt lat="43.50144" lon="6.48017">
        <ele>163.1</ele>
        <time>2018-03-18T14:21:01Z</time>
      </trkpt>
      <trkpt lat="43.50148" lon="6.48005">
        <ele>164.5</ele>
        <time>2018-03-18T14:21:09Z</time>
      </trkpt>
      <trkpt lat="43.50152" lon="6.47986">
        <ele>166</ele>
        <time>2018-03-18T14:21:20Z</time>
      </trkpt>
      <trkpt lat="43.50154" lon="6.47977">
        <ele>166.9</ele>
        <time>2018-03-18T14:21:26Z</time>
      </trkpt>
      <trkpt lat="43.50157" lon="6.47957">
        <ele>168.4</ele>
        <time>2018-03-18T14:21:36Z</time>
      </trkpt>
      <trkpt lat="43.50158" lon="6.47945">
        <ele>169.3</ele>
        <time>2018-03-18T14:21:44Z</time>
      </trkpt>
      <trkpt lat="43.50158" lon="6.47937">
        <ele>170.3</ele>
        <time>2018-03-18T14:21:50Z</time>
      </trkpt>
      <trkpt lat="43.50159" lon="6.4792">
        <ele>171.7</ele>
        <time>2018-03-18T14:22:02Z</time>
      </trkpt>
      <trkpt lat="43.5016" lon="6.47904">
        <ele>173.2</ele>
        <time>2018-03-18T14:22:13Z</time>
      </trkpt>
      <trkpt lat="43.5016" lon="6.47887">
        <ele>174.1</ele>
        <time>2018-03-18T14:22:22Z</time>
      </trkpt>
      <trkpt lat="43.50159" lon="6.47866">
        <ele>175.1</ele>
        <time>2018-03-18T14:22:33Z</time>
      </trkpt>
      <trkpt lat="43.50159" lon="6.47862">
        <ele>175.6</ele>
        <time>2018-03-18T14:22:36Z</time>
      </trkpt>
      <trkpt lat="43.5016" lon="6.47856">
        <ele>176.1</ele>
        <time>2018-03-18T14:22:40Z</time>
      </trkpt>
      <trkpt lat="43.50164" lon="6.47837">
        <ele>177.5</ele>
        <time>2018-03-18T14:22:49Z</time>
      </trkpt>
      <trkpt lat="43.50167" lon="6.4781">
        <ele>177.5</ele>
        <time>2018-03-18T14:23:02Z</time>
      </trkpt>
      <trkpt lat="43.50168" lon="6.47792">
        <ele>178.5</ele>
        <time>2018-03-18T14:23:12Z</time>
      </trkpt>
      <trkpt lat="43.50168" lon="6.47776">
        <ele>178.9</ele>
        <time>2018-03-18T14:23:22Z</time>
      </trkpt>
      <trkpt lat="43.50169" lon="6.47758">
        <ele>180.4</ele>
        <time>2018-03-18T14:23:33Z</time>
      </trkpt>
      <trkpt lat="43.50169" lon="6.47754">
        <ele>181.4</ele>
        <time>2018-03-18T14:23:35Z</time>
      </trkpt>
      <trkpt lat="43.50169" lon="6.47752">
        <ele>184.2</ele>
        <time>2018-03-18T14:23:36Z</time>
      </trkpt>
      <trkpt lat="43.50169" lon="6.4775">
        <ele>180.9</ele>
        <time>2018-03-18T14:23:37Z</time>
      </trkpt>
      <trkpt lat="43.50169" lon="6.47749">
        <ele>176.5</ele>
        <time>2018-03-18T14:23:38Z</time>
      </trkpt>
      <trkpt lat="43.50171" lon="6.47738">
        <ele>181.4</ele>
        <time>2018-03-18T14:23:44Z</time>
      </trkpt>
      <trkpt lat="43.50175" lon="6.47725">
        <ele>182.8</ele>
        <time>2018-03-18T14:23:53Z</time>
      </trkpt>
      <trkpt lat="43.50175" lon="6.47722">
        <ele>182.8</ele>
        <time>2018-03-18T14:23:55Z</time>
      </trkpt>
      <trkpt lat="43.50176" lon="6.47703">
        <ele>184.2</ele>
        <time>2018-03-18T14:24:06Z</time>
      </trkpt>
      <trkpt lat="43.50175" lon="6.47692">
        <ele>185.2</ele>
        <time>2018-03-18T14:24:12Z</time>
      </trkpt>
      <trkpt lat="43.50175" lon="6.47686">
        <ele>185.7</ele>
        <time>2018-03-18T14:24:15Z</time>
      </trkpt>
      <trkpt lat="43.50175" lon="6.47685">
        <ele>185.7</ele>
        <time>2018-03-18T14:24:25Z</time>
      </trkpt>
      <trkpt lat="43.50175" lon="6.47682">
        <ele>185.7</ele>
        <time>2018-03-18T14:24:35Z</time>
      </trkpt>
      <trkpt lat="43.50175" lon="6.47682">
        <ele>185.7</ele>
        <time>2018-03-18T14:24:46Z</time>
      </trkpt>
      <trkpt lat="43.50172" lon="6.47666">
        <ele>187.1</ele>
        <time>2018-03-18T14:24:57Z</time>
      </trkpt>
      <trkpt lat="43.50168" lon="6.47651">
        <ele>187.6</ele>
        <time>2018-03-18T14:25:06Z</time>
      </trkpt>
      <trkpt lat="43.50167" lon="6.47641">
        <ele>188.1</ele>
        <time>2018-03-18T14:25:12Z</time>
      </trkpt>
      <trkpt lat="43.50165" lon="6.47629">
        <ele>188.6</ele>
        <time>2018-03-18T14:25:20Z</time>
      </trkpt>
      <trkpt lat="43.50164" lon="6.47626">
        <ele>189</ele>
        <time>2018-03-18T14:25:22Z</time>
      </trkpt>
      <trkpt lat="43.50161" lon="6.4761">
        <ele>189.5</ele>
        <time>2018-03-18T14:25:32Z</time>
      </trkpt>
      <trkpt lat="43.50158" lon="6.47595">
        <ele>190</ele>
        <time>2018-03-18T14:25:41Z</time>
      </trkpt>
      <trkpt lat="43.50157" lon="6.47572">
        <ele>191</ele>
        <time>2018-03-18T14:25:53Z</time>
      </trkpt>
      <trkpt lat="43.50153" lon="6.47558">
        <ele>191.9</ele>
        <time>2018-03-18T14:26:03Z</time>
      </trkpt>
      <trkpt lat="43.50153" lon="6.47548">
        <ele>192.4</ele>
        <time>2018-03-18T14:26:09Z</time>
      </trkpt>
      <trkpt lat="43.50152" lon="6.47544">
        <ele>192.9</ele>
        <time>2018-03-18T14:26:12Z</time>
      </trkpt>
      <trkpt lat="43.50149" lon="6.47533">
        <ele>193.4</ele>
        <time>2018-03-18T14:26:21Z</time>
      </trkpt>
      <trkpt lat="43.50146" lon="6.47521">
        <ele>194.3</ele>
        <time>2018-03-18T14:26:29Z</time>
      </trkpt>
      <trkpt lat="43.50143" lon="6.47506">
        <ele>194.8</ele>
        <time>2018-03-18T14:26:38Z</time>
      </trkpt>
      <trkpt lat="43.5014" lon="6.47486">
        <ele>195.3</ele>
        <time>2018-03-18T14:26:48Z</time>
      </trkpt>
      <trkpt lat="43.50138" lon="6.47479">
        <ele>195.8</ele>
        <time>2018-03-18T14:27:04Z</time>
      </trkpt>
      <trkpt lat="43.50137" lon="6.47469">
        <ele>196.7</ele>
        <time>2018-03-18T14:27:13Z</time>
      </trkpt>
      <trkpt lat="43.50134" lon="6.47459">
        <ele>196.7</ele>
        <time>2018-03-18T14:27:18Z</time>
      </trkpt>
      <trkpt lat="43.50132" lon="6.47457">
        <ele>197.2</ele>
        <time>2018-03-18T14:27:20Z</time>
      </trkpt>
      <trkpt lat="43.50131" lon="6.4745">
        <ele>197.2</ele>
        <time>2018-03-18T14:27:28Z</time>
      </trkpt>
      <trkpt lat="43.5013" lon="6.47445">
        <ele>197.7</ele>
        <time>2018-03-18T14:27:32Z</time>
      </trkpt>
      <trkpt lat="43.50128" lon="6.47439">
        <ele>198.2</ele>
        <time>2018-03-18T14:27:36Z</time>
      </trkpt>
      <trkpt lat="43.50125" lon="6.47426">
        <ele>198.6</ele>
        <time>2018-03-18T14:27:45Z</time>
      </trkpt>
      <trkpt lat="43.50123" lon="6.47412">
        <ele>199.6</ele>
        <time>2018-03-18T14:27:54Z</time>
      </trkpt>
      <trkpt lat="43.50121" lon="6.47396">
        <ele>201.1</ele>
        <time>2018-03-18T14:28:05Z</time>
      </trkpt>
      <trkpt lat="43.5012" lon="6.47393">
        <ele>202</ele>
        <time>2018-03-18T14:28:07Z</time>
      </trkpt>
      <trkpt lat="43.50119" lon="6.47376">
        <ele>204.4</ele>
        <time>2018-03-18T14:28:17Z</time>
      </trkpt>
      <trkpt lat="43.5012" lon="6.47368">
        <ele>203.5</ele>
        <time>2018-03-18T14:28:22Z</time>
      </trkpt>
      <trkpt lat="43.5012" lon="6.47365">
        <ele>203.9</ele>
        <time>2018-03-18T14:28:24Z</time>
      </trkpt>
      <trkpt lat="43.50121" lon="6.47353">
        <ele>204.9</ele>
        <time>2018-03-18T14:28:32Z</time>
      </trkpt>
      <trkpt lat="43.50123" lon="6.47336">
        <ele>206.8</ele>
        <time>2018-03-18T14:28:42Z</time>
      </trkpt>
      <trkpt lat="43.50124" lon="6.47325">
        <ele>207.3</ele>
        <time>2018-03-18T14:28:49Z</time>
      </trkpt>
      <trkpt lat="43.50123" lon="6.47305">
        <ele>208.3</ele>
        <time>2018-03-18T14:29:01Z</time>
      </trkpt>
      <trkpt lat="43.50124" lon="6.47296">
        <ele>208.7</ele>
        <time>2018-03-18T14:29:06Z</time>
      </trkpt>
      <trkpt lat="43.50123" lon="6.47292">
        <ele>208.7</ele>
        <time>2018-03-18T14:29:08Z</time>
      </trkpt>
      <trkpt lat="43.50122" lon="6.47271">
        <ele>209.2</ele>
        <time>2018-03-18T14:29:20Z</time>
      </trkpt>
      <trkpt lat="43.50122" lon="6.47265">
        <ele>209.2</ele>
        <time>2018-03-18T14:29:24Z</time>
      </trkpt>
      <trkpt lat="43.50122" lon="6.47263">
        <ele>209.2</ele>
        <time>2018-03-18T14:29:48Z</time>
      </trkpt>
      <trkpt lat="43.50121" lon="6.47262">
        <ele>209.2</ele>
        <time>2018-03-18T14:30:07Z</time>
      </trkpt>
      <trkpt lat="43.50121" lon="6.47262">
        <ele>209.2</ele>
        <time>2018-03-18T14:30:18Z</time>
      </trkpt>
      <trkpt lat="43.50122" lon="6.47261">
        <ele>209.2</ele>
        <time>2018-03-18T14:30:35Z</time>
      </trkpt>
      <trkpt lat="43.50124" lon="6.4726">
        <ele>209.7</ele>
        <time>2018-03-18T14:30:44Z</time>
      </trkpt>
      <trkpt lat="43.50123" lon="6.47237">
        <ele>209.2</ele>
        <time>2018-03-18T14:30:54Z</time>
      </trkpt>
      <trkpt lat="43.50122" lon="6.47218">
        <ele>209.2</ele>
        <time>2018-03-18T14:31:03Z</time>
      </trkpt>
      <trkpt lat="43.5012" lon="6.47211">
        <ele>208.3</ele>
        <time>2018-03-18T14:31:07Z</time>
      </trkpt>
      <trkpt lat="43.50116" lon="6.47188">
        <ele>207.3</ele>
        <time>2018-03-18T14:31:19Z</time>
      </trkpt>
      <trkpt lat="43.50115" lon="6.4718">
        <ele>206.8</ele>
        <time>2018-03-18T14:31:23Z</time>
      </trkpt>
      <trkpt lat="43.50112" lon="6.47157">
        <ele>205.9</ele>
        <time>2018-03-18T14:31:36Z</time>
      </trkpt>
      <trkpt lat="43.50107" lon="6.47142">
        <ele>204.4</ele>
        <time>2018-03-18T14:31:47Z</time>
      </trkpt>
      <trkpt lat="43.50102" lon="6.47132">
        <ele>203.9</ele>
        <time>2018-03-18T14:31:53Z</time>
      </trkpt>
      <trkpt lat="43.50097" lon="6.47105">
        <ele>201.5</ele>
        <time>2018-03-18T14:32:06Z</time>
      </trkpt>
      <trkpt lat="43.50096" lon="6.47098">
        <ele>201.1</ele>
        <time>2018-03-18T14:32:10Z</time>
      </trkpt>
      <trkpt lat="43.50093" lon="6.47089">
        <ele>200.1</ele>
        <time>2018-03-18T14:32:17Z</time>
      </trkpt>
      <trkpt lat="43.50092" lon="6.47077">
        <ele>199.6</ele>
        <time>2018-03-18T14:32:24Z</time>
      </trkpt>
      <trkpt lat="43.50092" lon="6.47068">
        <ele>199.1</ele>
        <time>2018-03-18T14:32:29Z</time>
      </trkpt>
      <trkpt lat="43.50091" lon="6.47066">
        <ele>198.6</ele>
        <time>2018-03-18T14:32:31Z</time>
      </trkpt>
      <trkpt lat="43.50089" lon="6.47051">
        <ele>197.7</ele>
        <time>2018-03-18T14:32:43Z</time>
      </trkpt>
      <trkpt lat="43.50088" lon="6.47031">
        <ele>196.3</ele>
        <time>2018-03-18T14:32:53Z</time>
      </trkpt>
      <trkpt lat="43.50086" lon="6.47014">
        <ele>194.8</ele>
        <time>2018-03-18T14:33:03Z</time>
      </trkpt>
      <trkpt lat="43.50082" lon="6.46993">
        <ele>193.8</ele>
        <time>2018-03-18T14:33:14Z</time>
      </trkpt>
      <trkpt lat="43.50081" lon="6.46989">
        <ele>193.8</ele>
        <time>2018-03-18T14:33:16Z</time>
      </trkpt>
      <trkpt lat="43.50076" lon="6.46973">
        <ele>193.8</ele>
        <time>2018-03-18T14:33:24Z</time>
      </trkpt>
      <trkpt lat="43.50071" lon="6.46952">
        <ele>193.4</ele>
        <time>2018-03-18T14:33:35Z</time>
      </trkpt>
      <trkpt lat="43.50068" lon="6.46941">
        <ele>193.4</ele>
        <time>2018-03-18T14:33:41Z</time>
      </trkpt>
      <trkpt lat="43.50064" lon="6.46932">
        <ele>193.4</ele>
        <time>2018-03-18T14:33:46Z</time>
      </trkpt>
      <trkpt lat="43.50063" lon="6.46924">
        <ele>193.4</ele>
        <time>2018-03-18T14:33:50Z</time>
      </trkpt>
      <trkpt lat="43.5006" lon="6.46916">
        <ele>193.4</ele>
        <time>2018-03-18T14:33:54Z</time>
      </trkpt>
      <trkpt lat="43.50057" lon="6.46903">
        <ele>193.4</ele>
        <time>2018-03-18T14:34:02Z</time>
      </trkpt>
      <trkpt lat="43.50056" lon="6.46899">
        <ele>193.4</ele>
        <time>2018-03-18T14:34:04Z</time>
      </trkpt>
      <trkpt lat="43.5005" lon="6.46882">
        <ele>193.8</ele>
        <time>2018-03-18T14:34:14Z</time>
      </trkpt>
      <trkpt lat="43.50043" lon="6.46867">
        <ele>195.3</ele>
        <time>2018-03-18T14:34:24Z</time>
      </trkpt>
      <trkpt lat="43.50037" lon="6.4685">
        <ele>198.2</ele>
        <time>2018-03-18T14:34:34Z</time>
      </trkpt>
      <trkpt lat="43.50037" lon="6.46849">
        <ele>194.3</ele>
        <time>2018-03-18T14:34:35Z</time>
      </trkpt>
      <trkpt lat="43.50027" lon="6.4683">
        <ele>198.2</ele>
        <time>2018-03-18T14:34:46Z</time>
      </trkpt>
      <trkpt lat="43.50025" lon="6.46827">
        <ele>200.1</ele>
        <time>2018-03-18T14:34:49Z</time>
      </trkpt>
      <trkpt lat="43.50024" lon="6.46826">
        <ele>192.9</ele>
        <time>2018-03-18T14:34:50Z</time>
      </trkpt>
      <trkpt lat="43.50021" lon="6.46817">
        <ele>199.1</ele>
        <time>2018-03-18T14:34:55Z</time>
      </trkpt>
      <trkpt lat="43.50011" lon="6.46803">
        <ele>200.6</ele>
        <time>2018-03-18T14:35:06Z</time>
      </trkpt>
      <trkpt lat="43.5" lon="6.46788">
        <ele>201.5</ele>
        <time>2018-03-18T14:35:17Z</time>
      </trkpt>
      <trkpt lat="43.49996" lon="6.46785">
        <ele>202</ele>
        <time>2018-03-18T14:35:20Z</time>
      </trkpt>
      <trkpt lat="43.49982" lon="6.46772">
        <ele>203</ele>
        <time>2018-03-18T14:35:32Z</time>
      </trkpt>
      <trkpt lat="43.49975" lon="6.46765">
        <ele>203.5</ele>
        <time>2018-03-18T14:35:38Z</time>
      </trkpt>
      <trkpt lat="43.49972" lon="6.46761">
        <ele>203.9</ele>
        <time>2018-03-18T14:35:41Z</time>
      </trkpt>
      <trkpt lat="43.49967" lon="6.46753">
        <ele>204.4</ele>
        <time>2018-03-18T14:35:46Z</time>
      </trkpt>
      <trkpt lat="43.49962" lon="6.46746">
        <ele>204.9</ele>
        <time>2018-03-18T14:35:52Z</time>
      </trkpt>
      <trkpt lat="43.49949" lon="6.46732">
        <ele>205.9</ele>
        <time>2018-03-18T14:36:04Z</time>
      </trkpt>
      <trkpt lat="43.49945" lon="6.46729">
        <ele>206.3</ele>
        <time>2018-03-18T14:36:08Z</time>
      </trkpt>
      <trkpt lat="43.49934" lon="6.46715">
        <ele>207.8</ele>
        <time>2018-03-18T14:36:18Z</time>
      </trkpt>
      <trkpt lat="43.49921" lon="6.46702">
        <ele>208.3</ele>
        <time>2018-03-18T14:36:30Z</time>
      </trkpt>
      <trkpt lat="43.49908" lon="6.46691">
        <ele>209.2</ele>
        <time>2018-03-18T14:36:41Z</time>
      </trkpt>
      <trkpt lat="43.49896" lon="6.46679">
        <ele>210.7</ele>
        <time>2018-03-18T14:36:51Z</time>
      </trkpt>
      <trkpt lat="43.49892" lon="6.46675">
        <ele>211.1</ele>
        <time>2018-03-18T14:36:54Z</time>
      </trkpt>
      <trkpt lat="43.49892" lon="6.46675">
        <ele>211.1</ele>
        <time>2018-03-18T14:36:55Z</time>
      </trkpt>
      <trkpt lat="43.4988" lon="6.46657">
        <ele>212.6</ele>
        <time>2018-03-18T14:37:07Z</time>
      </trkpt>
      <trkpt lat="43.49877" lon="6.46652">
        <ele>213.1</ele>
        <time>2018-03-18T14:37:10Z</time>
      </trkpt>
      <trkpt lat="43.4987" lon="6.46635">
        <ele>214</ele>
        <time>2018-03-18T14:37:21Z</time>
      </trkpt>
      <trkpt lat="43.49864" lon="6.46621">
        <ele>215.9</ele>
        <time>2018-03-18T14:37:32Z</time>
      </trkpt>
      <trkpt lat="43.4986" lon="6.46613">
        <ele>216.4</ele>
        <time>2018-03-18T14:37:38Z</time>
      </trkpt>
      <trkpt lat="43.49857" lon="6.46605">
        <ele>216.4</ele>
        <time>2018-03-18T14:37:43Z</time>
      </trkpt>
      <trkpt lat="43.4985" lon="6.46589">
        <ele>216.9</ele>
        <time>2018-03-18T14:37:55Z</time>
      </trkpt>
      <trkpt lat="43.49848" lon="6.46585">
        <ele>216.9</ele>
        <time>2018-03-18T14:37:58Z</time>
      </trkpt>
      <trkpt lat="43.49847" lon="6.46578">
        <ele>216.9</ele>
        <time>2018-03-18T14:38:04Z</time>
      </trkpt>
      <trkpt lat="43.49842" lon="6.46573">
        <ele>217.4</ele>
        <time>2018-03-18T14:38:13Z</time>
      </trkpt>
      <trkpt lat="43.49834" lon="6.46557">
        <ele>216.4</ele>
        <time>2018-03-18T14:38:22Z</time>
      </trkpt>
      <trkpt lat="43.49828" lon="6.46545">
        <ele>215.9</ele>
        <time>2018-03-18T14:38:30Z</time>
      </trkpt>
      <trkpt lat="43.4982" lon="6.46522">
        <ele>215.5</ele>
        <time>2018-03-18T14:38:42Z</time>
      </trkpt>
      <trkpt lat="43.49817" lon="6.46504">
        <ele>215</ele>
        <time>2018-03-18T14:38:52Z</time>
      </trkpt>
      <trkpt lat="43.49816" lon="6.465">
        <ele>215.5</ele>
        <time>2018-03-18T14:38:54Z</time>
      </trkpt>
      <trkpt lat="43.49816" lon="6.46498">
        <ele>220.3</ele>
        <time>2018-03-18T14:38:55Z</time>
      </trkpt>
      <trkpt lat="43.49816" lon="6.46496">
        <ele>213.1</ele>
        <time>2018-03-18T14:38:56Z</time>
      </trkpt>
      <trkpt lat="43.49815" lon="6.46494">
        <ele>210.7</ele>
        <time>2018-03-18T14:38:57Z</time>
      </trkpt>
      <trkpt lat="43.49815" lon="6.46488">
        <ele>215</ele>
        <time>2018-03-18T14:39:00Z</time>
      </trkpt>
      <trkpt lat="43.49815" lon="6.4648">
        <ele>215</ele>
        <time>2018-03-18T14:39:04Z</time>
      </trkpt>
      <trkpt lat="43.49818" lon="6.4647">
        <ele>215</ele>
        <time>2018-03-18T14:39:10Z</time>
      </trkpt>
      <trkpt lat="43.49818" lon="6.46457">
        <ele>214.5</ele>
        <time>2018-03-18T14:39:16Z</time>
      </trkpt>
      <trkpt lat="43.49815" lon="6.46432">
        <ele>216.9</ele>
        <time>2018-03-18T14:39:29Z</time>
      </trkpt>
      <trkpt lat="43.49815" lon="6.4643">
        <ele>211.6</ele>
        <time>2018-03-18T14:39:30Z</time>
      </trkpt>
      <trkpt lat="43.49813" lon="6.4641">
        <ele>214.5</ele>
        <time>2018-03-18T14:39:40Z</time>
      </trkpt>
      <trkpt lat="43.49812" lon="6.46406">
        <ele>214.5</ele>
        <time>2018-03-18T14:39:42Z</time>
      </trkpt>
      <trkpt lat="43.49808" lon="6.46388">
        <ele>215</ele>
        <time>2018-03-18T14:39:52Z</time>
      </trkpt>
      <trkpt lat="43.49803" lon="6.46362">
        <ele>215</ele>
        <time>2018-03-18T14:40:04Z</time>
      </trkpt>
      <trkpt lat="43.49799" lon="6.46351">
        <ele>215</ele>
        <time>2018-03-18T14:40:11Z</time>
      </trkpt>
      <trkpt lat="43.49798" lon="6.46341">
        <ele>215</ele>
        <time>2018-03-18T14:40:16Z</time>
      </trkpt>
      <trkpt lat="43.49798" lon="6.4634">
        <ele>215</ele>
        <time>2018-03-18T14:40:21Z</time>
      </trkpt>
      <trkpt lat="43.49799" lon="6.46332">
        <ele>215.5</ele>
        <time>2018-03-18T14:40:34Z</time>
      </trkpt>
      <trkpt lat="43.49799" lon="6.46332">
        <ele>211.6</ele>
        <time>2018-03-18T14:40:35Z</time>
      </trkpt>
      <trkpt lat="43.49799" lon="6.46332">
        <ele>215</ele>
        <time>2018-03-18T14:40:37Z</time>
      </trkpt>
      <trkpt lat="43.49797" lon="6.46339">
        <ele>215</ele>
        <time>2018-03-18T14:40:48Z</time>
      </trkpt>
      <trkpt lat="43.49797" lon="6.46333">
        <ele>215.5</ele>
        <time>2018-03-18T14:40:55Z</time>
      </trkpt>
      <trkpt lat="43.49797" lon="6.46333">
        <ele>215</ele>
        <time>2018-03-18T14:41:07Z</time>
      </trkpt>
      <trkpt lat="43.49802" lon="6.46317">
        <ele>215.9</ele>
        <time>2018-03-18T14:41:19Z</time>
      </trkpt>
      <trkpt lat="43.49805" lon="6.46299">
        <ele>215.9</ele>
        <time>2018-03-18T14:41:27Z</time>
      </trkpt>
      <trkpt lat="43.49807" lon="6.46292">
        <ele>215.9</ele>
        <time>2018-03-18T14:41:33Z</time>
      </trkpt>
      <trkpt lat="43.49812" lon="6.46268">
        <ele>215.9</ele>
        <time>2018-03-18T14:41:42Z</time>
      </trkpt>
      <trkpt lat="43.49812" lon="6.46264">
        <ele>215.9</ele>
        <time>2018-03-18T14:41:45Z</time>
      </trkpt>
      <trkpt lat="43.49815" lon="6.46248">
        <ele>215.9</ele>
        <time>2018-03-18T14:41:56Z</time>
      </trkpt>
      <trkpt lat="43.49817" lon="6.46226">
        <ele>215.5</ele>
        <time>2018-03-18T14:42:07Z</time>
      </trkpt>
      <trkpt lat="43.49822" lon="6.46202">
        <ele>214.5</ele>
        <time>2018-03-18T14:42:19Z</time>
      </trkpt>
      <trkpt lat="43.49824" lon="6.46189">
        <ele>214</ele>
        <time>2018-03-18T14:42:24Z</time>
      </trkpt>
      <trkpt lat="43.49823" lon="6.46181">
        <ele>213.6</ele>
        <time>2018-03-18T14:42:30Z</time>
      </trkpt>
      <trkpt lat="43.49825" lon="6.46161">
        <ele>213.1</ele>
        <time>2018-03-18T14:42:40Z</time>
      </trkpt>
      <trkpt lat="43.49825" lon="6.46151">
        <ele>212.6</ele>
        <time>2018-03-18T14:42:44Z</time>
      </trkpt>
      <trkpt lat="43.49824" lon="6.46144">
        <ele>212.1</ele>
        <time>2018-03-18T14:42:48Z</time>
      </trkpt>
      <trkpt lat="43.49823" lon="6.46135">
        <ele>211.6</ele>
        <time>2018-03-18T14:42:56Z</time>
      </trkpt>
      <trkpt lat="43.49812" lon="6.46115">
        <ele>210.7</ele>
        <time>2018-03-18T14:43:07Z</time>
      </trkpt>
      <trkpt lat="43.49798" lon="6.46101">
        <ele>209.7</ele>
        <time>2018-03-18T14:43:19Z</time>
      </trkpt>
      <trkpt lat="43.49796" lon="6.46099">
        <ele>209.7</ele>
        <time>2018-03-18T14:43:21Z</time>
      </trkpt>
      <trkpt lat="43.49794" lon="6.46094">
        <ele>209.2</ele>
        <time>2018-03-18T14:43:25Z</time>
      </trkpt>
      <trkpt lat="43.49793" lon="6.46078">
        <ele>208.7</ele>
        <time>2018-03-18T14:43:33Z</time>
      </trkpt>
      <trkpt lat="43.49798" lon="6.46063">
        <ele>208.3</ele>
        <time>2018-03-18T14:43:43Z</time>
      </trkpt>
      <trkpt lat="43.49802" lon="6.46057">
        <ele>207.8</ele>
        <time>2018-03-18T14:43:49Z</time>
      </trkpt>
      <trkpt lat="43.4981" lon="6.46034">
        <ele>208.3</ele>
        <time>2018-03-18T14:44:01Z</time>
      </trkpt>
      <trkpt lat="43.49813" lon="6.46019">
        <ele>208.7</ele>
        <time>2018-03-18T14:44:10Z</time>
      </trkpt>
      <trkpt lat="43.49813" lon="6.46017">
        <ele>205.4</ele>
        <time>2018-03-18T14:44:11Z</time>
      </trkpt>
      <trkpt lat="43.49812" lon="6.46004">
        <ele>207.8</ele>
        <time>2018-03-18T14:44:17Z</time>
      </trkpt>
      <trkpt lat="43.4981" lon="6.45994">
        <ele>207.3</ele>
        <time>2018-03-18T14:44:26Z</time>
      </trkpt>
      <trkpt lat="43.49808" lon="6.45973">
        <ele>207.3</ele>
        <time>2018-03-18T14:44:36Z</time>
      </trkpt>
      <trkpt lat="43.49812" lon="6.45955">
        <ele>206.3</ele>
        <time>2018-03-18T14:44:46Z</time>
      </trkpt>
      <trkpt lat="43.49814" lon="6.45951">
        <ele>206.3</ele>
        <time>2018-03-18T14:44:49Z</time>
      </trkpt>
      <trkpt lat="43.49819" lon="6.45945">
        <ele>206.3</ele>
        <time>2018-03-18T14:44:55Z</time>
      </trkpt>
      <trkpt lat="43.49825" lon="6.45937">
        <ele>206.3</ele>
        <time>2018-03-18T14:44:59Z</time>
      </trkpt>
      <trkpt lat="43.49826" lon="6.45935">
        <ele>206.3</ele>
        <time>2018-03-18T14:45:01Z</time>
      </trkpt>
      <trkpt lat="43.49835" lon="6.45925">
        <ele>206.3</ele>
        <time>2018-03-18T14:45:10Z</time>
      </trkpt>
      <trkpt lat="43.4984" lon="6.4592">
        <ele>206.3</ele>
        <time>2018-03-18T14:45:16Z</time>
      </trkpt>
      <trkpt lat="43.49842" lon="6.45917">
        <ele>206.3</ele>
        <time>2018-03-18T14:45:19Z</time>
      </trkpt>
      <trkpt lat="43.49842" lon="6.45915">
        <ele>208.3</ele>
        <time>2018-03-18T14:45:20Z</time>
      </trkpt>
      <trkpt lat="43.4985" lon="6.45898">
        <ele>204.4</ele>
        <time>2018-03-18T14:45:31Z</time>
      </trkpt>
      <trkpt lat="43.49852" lon="6.45875">
        <ele>203.9</ele>
        <time>2018-03-18T14:45:42Z</time>
      </trkpt>
      <trkpt lat="43.49854" lon="6.45871">
        <ele>204.4</ele>
        <time>2018-03-18T14:45:47Z</time>
      </trkpt>
      <trkpt lat="43.49857" lon="6.45853">
        <ele>204.9</ele>
        <time>2018-03-18T14:45:55Z</time>
      </trkpt>
      <trkpt lat="43.49857" lon="6.45844">
        <ele>204.9</ele>
        <time>2018-03-18T14:46:02Z</time>
      </trkpt>
      <trkpt lat="43.49857" lon="6.45843">
        <ele>205.9</ele>
        <time>2018-03-18T14:46:06Z</time>
      </trkpt>
      <trkpt lat="43.49859" lon="6.45839">
        <ele>205.4</ele>
        <time>2018-03-18T14:46:19Z</time>
      </trkpt>
      <trkpt lat="43.49859" lon="6.45831">
        <ele>206.3</ele>
        <time>2018-03-18T14:46:24Z</time>
      </trkpt>
      <trkpt lat="43.4986" lon="6.45824">
        <ele>206.3</ele>
        <time>2018-03-18T14:46:27Z</time>
      </trkpt>
      <trkpt lat="43.49861" lon="6.45824">
        <ele>206.3</ele>
        <time>2018-03-18T14:46:29Z</time>
      </trkpt>
      <trkpt lat="43.49863" lon="6.45805">
        <ele>206.8</ele>
        <time>2018-03-18T14:46:38Z</time>
      </trkpt>
      <trkpt lat="43.49866" lon="6.45798">
        <ele>208.3</ele>
        <time>2018-03-18T14:46:43Z</time>
      </trkpt>
      <trkpt lat="43.49866" lon="6.45795">
        <ele>203.9</ele>
        <time>2018-03-18T14:46:44Z</time>
      </trkpt>
      <trkpt lat="43.49868" lon="6.45787">
        <ele>207.3</ele>
        <time>2018-03-18T14:46:48Z</time>
      </trkpt>
      <trkpt lat="43.49869" lon="6.45784">
        <ele>207.3</ele>
        <time>2018-03-18T14:46:50Z</time>
      </trkpt>
      <trkpt lat="43.49871" lon="6.45781">
        <ele>207.3</ele>
        <time>2018-03-18T14:46:56Z</time>
      </trkpt>
      <trkpt lat="43.49878" lon="6.45765">
        <ele>207.3</ele>
        <time>2018-03-18T14:47:03Z</time>
      </trkpt>
      <trkpt lat="43.4988" lon="6.45762">
        <ele>207.3</ele>
        <time>2018-03-18T14:47:05Z</time>
      </trkpt>
      <trkpt lat="43.4988" lon="6.45761">
        <ele>207.8</ele>
        <time>2018-03-18T14:47:09Z</time>
      </trkpt>
      <trkpt lat="43.4989" lon="6.45744">
        <ele>208.3</ele>
        <time>2018-03-18T14:47:19Z</time>
      </trkpt>
      <trkpt lat="43.49893" lon="6.45741">
        <ele>208.3</ele>
        <time>2018-03-18T14:47:22Z</time>
      </trkpt>
      <trkpt lat="43.49894" lon="6.4574">
        <ele>208.3</ele>
        <time>2018-03-18T14:47:23Z</time>
      </trkpt>
      <trkpt lat="43.49902" lon="6.45722">
        <ele>208.3</ele>
        <time>2018-03-18T14:47:34Z</time>
      </trkpt>
      <trkpt lat="43.49908" lon="6.45706">
        <ele>207.8</ele>
        <time>2018-03-18T14:47:43Z</time>
      </trkpt>
      <trkpt lat="43.49906" lon="6.45697">
        <ele>207.3</ele>
        <time>2018-03-18T14:47:48Z</time>
      </trkpt>
      <trkpt lat="43.49918" lon="6.45677">
        <ele>206.8</ele>
        <time>2018-03-18T14:48:00Z</time>
      </trkpt>
      <trkpt lat="43.49919" lon="6.45675">
        <ele>206.8</ele>
        <time>2018-03-18T14:48:02Z</time>
      </trkpt>
      <trkpt lat="43.49921" lon="6.45672">
        <ele>206.8</ele>
        <time>2018-03-18T14:48:04Z</time>
      </trkpt>
      <trkpt lat="43.49925" lon="6.45667">
        <ele>205.9</ele>
        <time>2018-03-18T14:48:10Z</time>
      </trkpt>
      <trkpt lat="43.49932" lon="6.4565">
        <ele>204.4</ele>
        <time>2018-03-18T14:48:19Z</time>
      </trkpt>
      <trkpt lat="43.49943" lon="6.45633">
        <ele>203</ele>
        <time>2018-03-18T14:48:31Z</time>
      </trkpt>
      <trkpt lat="43.49944" lon="6.45631">
        <ele>203</ele>
        <time>2018-03-18T14:48:32Z</time>
      </trkpt>
      <trkpt lat="43.4995" lon="6.45613">
        <ele>201.1</ele>
        <time>2018-03-18T14:48:43Z</time>
      </trkpt>
      <trkpt lat="43.49956" lon="6.456">
        <ele>199.6</ele>
        <time>2018-03-18T14:48:52Z</time>
      </trkpt>
      <trkpt lat="43.49957" lon="6.45595">
        <ele>199.6</ele>
        <time>2018-03-18T14:48:55Z</time>
      </trkpt>
      <trkpt lat="43.49958" lon="6.4559">
        <ele>198.6</ele>
        <time>2018-03-18T14:49:00Z</time>
      </trkpt>
      <trkpt lat="43.49971" lon="6.45588">
        <ele>198.2</ele>
        <time>2018-03-18T14:49:11Z</time>
      </trkpt>
      <trkpt lat="43.49981" lon="6.45603">
        <ele>197.7</ele>
        <time>2018-03-18T14:49:22Z</time>
      </trkpt>
      <trkpt lat="43.49986" lon="6.45613">
        <ele>196.7</ele>
        <time>2018-03-18T14:49:32Z</time>
      </trkpt>
      <trkpt lat="43.49996" lon="6.45627">
        <ele>196.3</ele>
        <time>2018-03-18T14:49:40Z</time>
      </trkpt>
      <trkpt lat="43.5" lon="6.45636">
        <ele>196.3</ele>
        <time>2018-03-18T14:49:46Z</time>
      </trkpt>
      <trkpt lat="43.50004" lon="6.45639">
        <ele>196.3</ele>
        <time>2018-03-18T14:49:49Z</time>
      </trkpt>
      <trkpt lat="43.50008" lon="6.45644">
        <ele>196.3</ele>
        <time>2018-03-18T14:49:54Z</time>
      </trkpt>
      <trkpt lat="43.50012" lon="6.45648">
        <ele>196.7</ele>
        <time>2018-03-18T14:49:58Z</time>
      </trkpt>
      <trkpt lat="43.50018" lon="6.4565">
        <ele>196.7</ele>
        <time>2018-03-18T14:50:03Z</time>
      </trkpt>
      <trkpt lat="43.50026" lon="6.45648">
        <ele>196.3</ele>
        <time>2018-03-18T14:50:09Z</time>
      </trkpt>
      <trkpt lat="43.50027" lon="6.45646">
        <ele>196.3</ele>
        <time>2018-03-18T14:50:11Z</time>
      </trkpt>
      <trkpt lat="43.50028" lon="6.45646">
        <ele>196.3</ele>
        <time>2018-03-18T14:50:13Z</time>
      </trkpt>
      <trkpt lat="43.50027" lon="6.45646">
        <ele>196.3</ele>
        <time>2018-03-18T14:50:24Z</time>
      </trkpt>
      <trkpt lat="43.50027" lon="6.45646">
        <ele>199.6</ele>
        <time>2018-03-18T14:50:26Z</time>
      </trkpt>
      <trkpt lat="43.50026" lon="6.45647">
        <ele>196.3</ele>
        <time>2018-03-18T14:50:31Z</time>
      </trkpt>
      <trkpt lat="43.50037" lon="6.4563">
        <ele>195.8</ele>
        <time>2018-03-18T14:50:46Z</time>
      </trkpt>
      <trkpt lat="43.50048" lon="6.45616">
        <ele>195.8</ele>
        <time>2018-03-18T14:50:57Z</time>
      </trkpt>
      <trkpt lat="43.50056" lon="6.45606">
        <ele>195.3</ele>
        <time>2018-03-18T14:51:06Z</time>
      </trkpt>
      <trkpt lat="43.50063" lon="6.45597">
        <ele>195.3</ele>
        <time>2018-03-18T14:51:12Z</time>
      </trkpt>
      <trkpt lat="43.5007" lon="6.45591">
        <ele>195.3</ele>
        <time>2018-03-18T14:51:19Z</time>
      </trkpt>
      <trkpt lat="43.50078" lon="6.45579">
        <ele>195.8</ele>
        <time>2018-03-18T14:51:28Z</time>
      </trkpt>
      <trkpt lat="43.5008" lon="6.45575">
        <ele>195.8</ele>
        <time>2018-03-18T14:51:31Z</time>
      </trkpt>
      <trkpt lat="43.50084" lon="6.45569">
        <ele>196.7</ele>
        <time>2018-03-18T14:51:39Z</time>
      </trkpt>
      <trkpt lat="43.50087" lon="6.45566">
        <ele>196.7</ele>
        <time>2018-03-18T14:51:42Z</time>
      </trkpt>
      <trkpt lat="43.50088" lon="6.45563">
        <ele>197.2</ele>
        <time>2018-03-18T14:51:44Z</time>
      </trkpt>
      <trkpt lat="43.50088" lon="6.45562">
        <ele>197.2</ele>
        <time>2018-03-18T14:51:47Z</time>
      </trkpt>
      <trkpt lat="43.50088" lon="6.45562">
        <ele>197.2</ele>
        <time>2018-03-18T14:52:00Z</time>
      </trkpt>
      <trkpt lat="43.50092" lon="6.45558">
        <ele>197.2</ele>
        <time>2018-03-18T14:52:10Z</time>
      </trkpt>
      <trkpt lat="43.50097" lon="6.45555">
        <ele>198.2</ele>
        <time>2018-03-18T14:52:16Z</time>
      </trkpt>
      <trkpt lat="43.50098" lon="6.45556">
        <ele>198.6</ele>
        <time>2018-03-18T14:52:18Z</time>
      </trkpt>
      <trkpt lat="43.50099" lon="6.45556">
        <ele>198.6</ele>
        <time>2018-03-18T14:52:21Z</time>
      </trkpt>
      <trkpt lat="43.50099" lon="6.45555">
        <ele>197.7</ele>
        <time>2018-03-18T14:52:29Z</time>
      </trkpt>
      <trkpt lat="43.50104" lon="6.45558">
        <ele>199.1</ele>
        <time>2018-03-18T14:52:39Z</time>
      </trkpt>
      <trkpt lat="43.50102" lon="6.45558">
        <ele>198.6</ele>
        <time>2018-03-18T14:52:49Z</time>
      </trkpt>
      <trkpt lat="43.50101" lon="6.45558">
        <ele>203.5</ele>
        <time>2018-03-18T14:52:50Z</time>
      </trkpt>
      <trkpt lat="43.50101" lon="6.45557">
        <ele>197.2</ele>
        <time>2018-03-18T14:52:54Z</time>
      </trkpt>
      <trkpt lat="43.50101" lon="6.45557">
        <ele>197.2</ele>
        <time>2018-03-18T14:52:55Z</time>
      </trkpt>
      <trkpt lat="43.50101" lon="6.45557">
        <ele>201.1</ele>
        <time>2018-03-18T14:52:57Z</time>
      </trkpt>
      <trkpt lat="43.50101" lon="6.45558">
        <ele>195.8</ele>
        <time>2018-03-18T14:53:00Z</time>
      </trkpt>
      <trkpt lat="43.50101" lon="6.45558">
        <ele>198.6</ele>
        <time>2018-03-18T14:53:04Z</time>
      </trkpt>
      <trkpt lat="43.50099" lon="6.45556">
        <ele>198.6</ele>
        <time>2018-03-18T14:53:16Z</time>
      </trkpt>
      <trkpt lat="43.50097" lon="6.45555">
        <ele>197.7</ele>
        <time>2018-03-18T14:53:27Z</time>
      </trkpt>
      <trkpt lat="43.50099" lon="6.45555">
        <ele>198.2</ele>
        <time>2018-03-18T14:53:35Z</time>
      </trkpt>
      <trkpt lat="43.50105" lon="6.45557">
        <ele>199.1</ele>
        <time>2018-03-18T14:53:45Z</time>
      </trkpt>
      <trkpt lat="43.50109" lon="6.45555">
        <ele>199.1</ele>
        <time>2018-03-18T14:53:57Z</time>
      </trkpt>
      <trkpt lat="43.50109" lon="6.45555">
        <ele>199.6</ele>
        <time>2018-03-18T14:54:08Z</time>
      </trkpt>
      <trkpt lat="43.50109" lon="6.45555">
        <ele>203</ele>
        <time>2018-03-18T14:54:09Z</time>
      </trkpt>
      <trkpt lat="43.50109" lon="6.45555">
        <ele>195.8</ele>
        <time>2018-03-18T14:54:10Z</time>
      </trkpt>
      <trkpt lat="43.50109" lon="6.45555">
        <ele>201.1</ele>
        <time>2018-03-18T14:54:12Z</time>
      </trkpt>
      <trkpt lat="43.50109" lon="6.45555">
        <ele>196.7</ele>
        <time>2018-03-18T14:54:13Z</time>
      </trkpt>
      <trkpt lat="43.50109" lon="6.45555">
        <ele>200.6</ele>
        <time>2018-03-18T14:54:17Z</time>
      </trkpt>
      <trkpt lat="43.50109" lon="6.45554">
        <ele>199.1</ele>
        <time>2018-03-18T14:54:35Z</time>
      </trkpt>
      <trkpt lat="43.50112" lon="6.45554">
        <ele>200.6</ele>
        <time>2018-03-18T14:54:50Z</time>
      </trkpt>
      <trkpt lat="43.50115" lon="6.45547">
        <ele>198.6</ele>
        <time>2018-03-18T14:55:02Z</time>
      </trkpt>
      <trkpt lat="43.50115" lon="6.45545">
        <ele>198.2</ele>
        <time>2018-03-18T14:55:04Z</time>
      </trkpt>
      <trkpt lat="43.5012" lon="6.45535">
        <ele>198.2</ele>
        <time>2018-03-18T14:55:12Z</time>
      </trkpt>
      <trkpt lat="43.50124" lon="6.45533">
        <ele>198.2</ele>
        <time>2018-03-18T14:55:15Z</time>
      </trkpt>
      <trkpt lat="43.50126" lon="6.4553">
        <ele>198.6</ele>
        <time>2018-03-18T14:55:17Z</time>
      </trkpt>
      <trkpt lat="43.50131" lon="6.45528">
        <ele>198.6</ele>
        <time>2018-03-18T14:55:22Z</time>
      </trkpt>
      <trkpt lat="43.50134" lon="6.45525">
        <ele>198.6</ele>
        <time>2018-03-18T14:55:25Z</time>
      </trkpt>
      <trkpt lat="43.50135" lon="6.45523">
        <ele>198.2</ele>
        <time>2018-03-18T14:55:27Z</time>
      </trkpt>
      <trkpt lat="43.50141" lon="6.45516">
        <ele>196.7</ele>
        <time>2018-03-18T14:55:34Z</time>
      </trkpt>
      <trkpt lat="43.50155" lon="6.45508">
        <ele>195.3</ele>
        <time>2018-03-18T14:55:46Z</time>
      </trkpt>
      <trkpt lat="43.50168" lon="6.45496">
        <ele>193.8</ele>
        <time>2018-03-18T14:55:58Z</time>
      </trkpt>
      <trkpt lat="43.50168" lon="6.45496">
        <ele>193.8</ele>
        <time>2018-03-18T14:55:59Z</time>
      </trkpt>
      <trkpt lat="43.50169" lon="6.45493">
        <ele>193.4</ele>
        <time>2018-03-18T14:56:21Z</time>
      </trkpt>
      <trkpt lat="43.50169" lon="6.45491">
        <ele>193.4</ele>
        <time>2018-03-18T14:56:32Z</time>
      </trkpt>
      <trkpt lat="43.50181" lon="6.45494">
        <ele>192.9</ele>
        <time>2018-03-18T14:56:43Z</time>
      </trkpt>
      <trkpt lat="43.50184" lon="6.45494">
        <ele>192.9</ele>
        <time>2018-03-18T14:56:46Z</time>
      </trkpt>
      <trkpt lat="43.50185" lon="6.45494">
        <ele>195.8</ele>
        <time>2018-03-18T14:56:47Z</time>
      </trkpt>
      <trkpt lat="43.50192" lon="6.45491">
        <ele>198.2</ele>
        <time>2018-03-18T14:56:54Z</time>
      </trkpt>
      <trkpt lat="43.50194" lon="6.4549">
        <ele>190.5</ele>
        <time>2018-03-18T14:56:56Z</time>
      </trkpt>
      <trkpt lat="43.50195" lon="6.45489">
        <ele>198.2</ele>
        <time>2018-03-18T14:56:57Z</time>
      </trkpt>
      <trkpt lat="43.50196" lon="6.45488">
        <ele>186.6</ele>
        <time>2018-03-18T14:56:58Z</time>
      </trkpt>
      <trkpt lat="43.50201" lon="6.45488">
        <ele>191.4</ele>
        <time>2018-03-18T14:57:01Z</time>
      </trkpt>
      <trkpt lat="43.50207" lon="6.45487">
        <ele>191.4</ele>
        <time>2018-03-18T14:57:05Z</time>
      </trkpt>
      <trkpt lat="43.50219" lon="6.45486">
        <ele>191</ele>
        <time>2018-03-18T14:57:17Z</time>
      </trkpt>
      <trkpt lat="43.50223" lon="6.45485">
        <ele>191</ele>
        <time>2018-03-18T14:57:21Z</time>
      </trkpt>
      <trkpt lat="43.50231" lon="6.45485">
        <ele>191</ele>
        <time>2018-03-18T14:57:31Z</time>
      </trkpt>
      <trkpt lat="43.50239" lon="6.45485">
        <ele>190.5</ele>
        <time>2018-03-18T14:57:40Z</time>
      </trkpt>
      <trkpt lat="43.50241" lon="6.45485">
        <ele>191.4</ele>
        <time>2018-03-18T14:57:50Z</time>
      </trkpt>
      <trkpt lat="43.50242" lon="6.45485">
        <ele>195.3</ele>
        <time>2018-03-18T14:57:51Z</time>
      </trkpt>
      <trkpt lat="43.50242" lon="6.45486">
        <ele>191</ele>
        <time>2018-03-18T14:57:55Z</time>
      </trkpt>
      <trkpt lat="43.50241" lon="6.45486">
        <ele>195.8</ele>
        <time>2018-03-18T14:57:56Z</time>
      </trkpt>
      <trkpt lat="43.50244" lon="6.45487">
        <ele>191</ele>
        <time>2018-03-18T14:58:04Z</time>
      </trkpt>
      <trkpt lat="43.50256" lon="6.45478">
        <ele>191.4</ele>
        <time>2018-03-18T14:58:13Z</time>
      </trkpt>
      <trkpt lat="43.50269" lon="6.45472">
        <ele>191.9</ele>
        <time>2018-03-18T14:58:22Z</time>
      </trkpt>
      <trkpt lat="43.50277" lon="6.45468">
        <ele>192.9</ele>
        <time>2018-03-18T14:58:30Z</time>
      </trkpt>
      <trkpt lat="43.5028" lon="6.45462">
        <ele>192.9</ele>
        <time>2018-03-18T14:58:39Z</time>
      </trkpt>
      <trkpt lat="43.50275" lon="6.45468">
        <ele>192.4</ele>
        <time>2018-03-18T14:58:49Z</time>
      </trkpt>
      <trkpt lat="43.50272" lon="6.4547">
        <ele>192.4</ele>
        <time>2018-03-18T14:58:52Z</time>
      </trkpt>
      <trkpt lat="43.50273" lon="6.45472">
        <ele>191.9</ele>
        <time>2018-03-18T14:59:07Z</time>
      </trkpt>
      <trkpt lat="43.50272" lon="6.45473">
        <ele>191.9</ele>
        <time>2018-03-18T14:59:21Z</time>
      </trkpt>
      <trkpt lat="43.50279" lon="6.45467">
        <ele>192.4</ele>
        <time>2018-03-18T14:59:31Z</time>
      </trkpt>
      <trkpt lat="43.50283" lon="6.45459">
        <ele>192.4</ele>
        <time>2018-03-18T14:59:45Z</time>
      </trkpt>
      <trkpt lat="43.50282" lon="6.45461">
        <ele>192.4</ele>
        <time>2018-03-18T14:59:57Z</time>
      </trkpt>
      <trkpt lat="43.50284" lon="6.4546">
        <ele>192.4</ele>
        <time>2018-03-18T15:00:08Z</time>
      </trkpt>
      <trkpt lat="43.50289" lon="6.45451">
        <ele>193.4</ele>
        <time>2018-03-18T15:00:18Z</time>
      </trkpt>
      <trkpt lat="43.5029" lon="6.4545">
        <ele>192.4</ele>
        <time>2018-03-18T15:00:29Z</time>
      </trkpt>
      <trkpt lat="43.5029" lon="6.4545">
        <ele>192.4</ele>
        <time>2018-03-18T15:00:44Z</time>
      </trkpt>
      <trkpt lat="43.5029" lon="6.4545">
        <ele>192.4</ele>
        <time>2018-03-18T15:01:07Z</time>
      </trkpt>
      <trkpt lat="43.50292" lon="6.45451">
        <ele>192.4</ele>
        <time>2018-03-18T15:01:26Z</time>
      </trkpt>
      <trkpt lat="43.50293" lon="6.45452">
        <ele>192.4</ele>
        <time>2018-03-18T15:01:44Z</time>
      </trkpt>
      <trkpt lat="43.50294" lon="6.45453">
        <ele>191.9</ele>
        <time>2018-03-18T15:02:01Z</time>
      </trkpt>
      <trkpt lat="43.50294" lon="6.45454">
        <ele>192.4</ele>
        <time>2018-03-18T15:02:19Z</time>
      </trkpt>
      <trkpt lat="43.50295" lon="6.45454">
        <ele>191.9</ele>
        <time>2018-03-18T15:02:36Z</time>
      </trkpt>
      <trkpt lat="43.50296" lon="6.45455">
        <ele>191.4</ele>
        <time>2018-03-18T15:02:47Z</time>
      </trkpt>
      <trkpt lat="43.50297" lon="6.45453">
        <ele>191.9</ele>
        <time>2018-03-18T15:03:07Z</time>
      </trkpt>
      <trkpt lat="43.50299" lon="6.45452">
        <ele>191.9</ele>
        <time>2018-03-18T15:03:20Z</time>
      </trkpt>
      <trkpt lat="43.50308" lon="6.45449">
        <ele>191.9</ele>
        <time>2018-03-18T15:03:32Z</time>
      </trkpt>
      <trkpt lat="43.50312" lon="6.45446">
        <ele>191.9</ele>
        <time>2018-03-18T15:03:37Z</time>
      </trkpt>
      <trkpt lat="43.50315" lon="6.45446">
        <ele>191.9</ele>
        <time>2018-03-18T15:03:48Z</time>
      </trkpt>
      <trkpt lat="43.50317" lon="6.45448">
        <ele>192.9</ele>
        <time>2018-03-18T15:04:01Z</time>
      </trkpt>
      <trkpt lat="43.50315" lon="6.45447">
        <ele>192.9</ele>
        <time>2018-03-18T15:04:15Z</time>
      </trkpt>
      <trkpt lat="43.50314" lon="6.45447">
        <ele>192.9</ele>
        <time>2018-03-18T15:04:28Z</time>
      </trkpt>
      <trkpt lat="43.50317" lon="6.45438">
        <ele>191.4</ele>
        <time>2018-03-18T15:04:38Z</time>
      </trkpt>
      <trkpt lat="43.50321" lon="6.45432">
        <ele>191.4</ele>
        <time>2018-03-18T15:04:48Z</time>
      </trkpt>
      <trkpt lat="43.50321" lon="6.45429">
        <ele>191.4</ele>
        <time>2018-03-18T15:04:58Z</time>
      </trkpt>
      <trkpt lat="43.50321" lon="6.45431">
        <ele>191</ele>
        <time>2018-03-18T15:05:09Z</time>
      </trkpt>
      <trkpt lat="43.5032" lon="6.45431">
        <ele>191.4</ele>
        <time>2018-03-18T15:05:10Z</time>
      </trkpt>
      <trkpt lat="43.50319" lon="6.45434">
        <ele>191.4</ele>
        <time>2018-03-18T15:05:22Z</time>
      </trkpt>
      <trkpt lat="43.50325" lon="6.45432">
        <ele>191.4</ele>
        <time>2018-03-18T15:05:33Z</time>
      </trkpt>
      <trkpt lat="43.50328" lon="6.45433">
        <ele>191.4</ele>
        <time>2018-03-18T15:05:49Z</time>
      </trkpt>
      <trkpt lat="43.50327" lon="6.45431">
        <ele>191.4</ele>
        <time>2018-03-18T15:06:04Z</time>
      </trkpt>
      <trkpt lat="43.50336" lon="6.4543">
        <ele>191.4</ele>
        <time>2018-03-18T15:06:14Z</time>
      </trkpt>
      <trkpt lat="43.5035" lon="6.45425">
        <ele>191.4</ele>
        <time>2018-03-18T15:06:25Z</time>
      </trkpt>
      <trkpt lat="43.50354" lon="6.45419">
        <ele>191</ele>
        <time>2018-03-18T15:06:30Z</time>
      </trkpt>
      <trkpt lat="43.50361" lon="6.45412">
        <ele>189.5</ele>
        <time>2018-03-18T15:06:38Z</time>
      </trkpt>
      <trkpt lat="43.50361" lon="6.45411">
        <ele>189.5</ele>
        <time>2018-03-18T15:06:39Z</time>
      </trkpt>
      <trkpt lat="43.50372" lon="6.45397">
        <ele>187.1</ele>
        <time>2018-03-18T15:06:52Z</time>
      </trkpt>
      <trkpt lat="43.50382" lon="6.45386">
        <ele>185.7</ele>
        <time>2018-03-18T15:07:02Z</time>
      </trkpt>
      <trkpt lat="43.50392" lon="6.45375">
        <ele>183.8</ele>
        <time>2018-03-18T15:07:14Z</time>
      </trkpt>
      <trkpt lat="43.50393" lon="6.45372">
        <ele>183.3</ele>
        <time>2018-03-18T15:07:17Z</time>
      </trkpt>
      <trkpt lat="43.50398" lon="6.45369">
        <ele>182.8</ele>
        <time>2018-03-18T15:07:27Z</time>
      </trkpt>
      <trkpt lat="43.50403" lon="6.45365">
        <ele>182.8</ele>
        <time>2018-03-18T15:07:35Z</time>
      </trkpt>
      <trkpt lat="43.50406" lon="6.45364">
        <ele>182.3</ele>
        <time>2018-03-18T15:07:44Z</time>
      </trkpt>
      <trkpt lat="43.50406" lon="6.45363">
        <ele>182.3</ele>
        <time>2018-03-18T15:08:07Z</time>
      </trkpt>
      <trkpt lat="43.50403" lon="6.45364">
        <ele>182.3</ele>
        <time>2018-03-18T15:08:18Z</time>
      </trkpt>
      <trkpt lat="43.50396" lon="6.45369">
        <ele>182.8</ele>
        <time>2018-03-18T15:08:27Z</time>
      </trkpt>
      <trkpt lat="43.50395" lon="6.4537">
        <ele>182.8</ele>
        <time>2018-03-18T15:08:28Z</time>
      </trkpt>
      <trkpt lat="43.50394" lon="6.45371">
        <ele>182.8</ele>
        <time>2018-03-18T15:08:40Z</time>
      </trkpt>
      <trkpt lat="43.50399" lon="6.45367">
        <ele>182.3</ele>
        <time>2018-03-18T15:08:50Z</time>
      </trkpt>
      <trkpt lat="43.50412" lon="6.45363">
        <ele>182.3</ele>
        <time>2018-03-18T15:09:02Z</time>
      </trkpt>
      <trkpt lat="43.50417" lon="6.45365">
        <ele>182.3</ele>
        <time>2018-03-18T15:09:16Z</time>
      </trkpt>
      <trkpt lat="43.50417" lon="6.45365">
        <ele>179.9</ele>
        <time>2018-03-18T15:09:18Z</time>
      </trkpt>
      <trkpt lat="43.5042" lon="6.45365">
        <ele>181.8</ele>
        <time>2018-03-18T15:09:24Z</time>
      </trkpt>
      <trkpt lat="43.50426" lon="6.4537">
        <ele>182.3</ele>
        <time>2018-03-18T15:09:34Z</time>
      </trkpt>
      <trkpt lat="43.50434" lon="6.45381">
        <ele>182.8</ele>
        <time>2018-03-18T15:09:43Z</time>
      </trkpt>
      <trkpt lat="43.50443" lon="6.45385">
        <ele>182.8</ele>
        <time>2018-03-18T15:09:53Z</time>
      </trkpt>
      <trkpt lat="43.50443" lon="6.45389">
        <ele>182.8</ele>
        <time>2018-03-18T15:10:05Z</time>
      </trkpt>
      <trkpt lat="43.5046" lon="6.45398">
        <ele>182.8</ele>
        <time>2018-03-18T15:10:17Z</time>
      </trkpt>
      <trkpt lat="43.50467" lon="6.45401">
        <ele>182.8</ele>
        <time>2018-03-18T15:10:23Z</time>
      </trkpt>
      <trkpt lat="43.5049" lon="6.45414">
        <ele>183.8</ele>
        <time>2018-03-18T15:10:36Z</time>
      </trkpt>
      <trkpt lat="43.50504" lon="6.45413">
        <ele>184.2</ele>
        <time>2018-03-18T15:10:45Z</time>
      </trkpt>
      <trkpt lat="43.50515" lon="6.45415">
        <ele>185.2</ele>
        <time>2018-03-18T15:10:55Z</time>
      </trkpt>
      <trkpt lat="43.50527" lon="6.45415">
        <ele>185.2</ele>
        <time>2018-03-18T15:11:04Z</time>
      </trkpt>
      <trkpt lat="43.50537" lon="6.45413">
        <ele>186.1</ele>
        <time>2018-03-18T15:11:12Z</time>
      </trkpt>
      <trkpt lat="43.50538" lon="6.45413">
        <ele>186.1</ele>
        <time>2018-03-18T15:11:13Z</time>
      </trkpt>
      <trkpt lat="43.5055" lon="6.4541">
        <ele>186.6</ele>
        <time>2018-03-18T15:11:21Z</time>
      </trkpt>
      <trkpt lat="43.50567" lon="6.45403">
        <ele>187.1</ele>
        <time>2018-03-18T15:11:30Z</time>
      </trkpt>
      <trkpt lat="43.50575" lon="6.45399">
        <ele>186.6</ele>
        <time>2018-03-18T15:11:35Z</time>
      </trkpt>
      <trkpt lat="43.5059" lon="6.4539">
        <ele>187.1</ele>
        <time>2018-03-18T15:11:46Z</time>
      </trkpt>
      <trkpt lat="43.50593" lon="6.45388">
        <ele>187.1</ele>
        <time>2018-03-18T15:11:49Z</time>
      </trkpt>
      <trkpt lat="43.50603" lon="6.45382">
        <ele>187.6</ele>
        <time>2018-03-18T15:11:58Z</time>
      </trkpt>
      <trkpt lat="43.50618" lon="6.45377">
        <ele>187.6</ele>
        <time>2018-03-18T15:12:09Z</time>
      </trkpt>
      <trkpt lat="43.50629" lon="6.45375">
        <ele>188.6</ele>
        <time>2018-03-18T15:12:16Z</time>
      </trkpt>
      <trkpt lat="43.50642" lon="6.45373">
        <ele>188.6</ele>
        <time>2018-03-18T15:12:26Z</time>
      </trkpt>
      <trkpt lat="43.50657" lon="6.45369">
        <ele>189.5</ele>
        <time>2018-03-18T15:12:38Z</time>
      </trkpt>
      <trkpt lat="43.50663" lon="6.45365">
        <ele>190</ele>
        <time>2018-03-18T15:12:43Z</time>
      </trkpt>
      <trkpt lat="43.50672" lon="6.45362">
        <ele>190</ele>
        <time>2018-03-18T15:12:50Z</time>
      </trkpt>
      <trkpt lat="43.50679" lon="6.45362">
        <ele>191</ele>
        <time>2018-03-18T15:12:57Z</time>
      </trkpt>
      <trkpt lat="43.5068" lon="6.45361">
        <ele>191</ele>
        <time>2018-03-18T15:12:58Z</time>
      </trkpt>
      <trkpt lat="43.50694" lon="6.45354">
        <ele>191.4</ele>
        <time>2018-03-18T15:13:10Z</time>
      </trkpt>
      <trkpt lat="43.5071" lon="6.45352">
        <ele>191.9</ele>
        <time>2018-03-18T15:13:22Z</time>
      </trkpt>
      <trkpt lat="43.50723" lon="6.45352">
        <ele>191.9</ele>
        <time>2018-03-18T15:13:32Z</time>
      </trkpt>
      <trkpt lat="43.50737" lon="6.45362">
        <ele>192.9</ele>
        <time>2018-03-18T15:13:44Z</time>
      </trkpt>
      <trkpt lat="43.50753" lon="6.45376">
        <ele>193.4</ele>
        <time>2018-03-18T15:13:57Z</time>
      </trkpt>
      <trkpt lat="43.50758" lon="6.45381">
        <ele>193.8</ele>
        <time>2018-03-18T15:14:09Z</time>
      </trkpt>
      <trkpt lat="43.50761" lon="6.45382">
        <ele>194.8</ele>
        <time>2018-03-18T15:14:19Z</time>
      </trkpt>
      <trkpt lat="43.50775" lon="6.45389">
        <ele>194.3</ele>
        <time>2018-03-18T15:14:31Z</time>
      </trkpt>
      <trkpt lat="43.50787" lon="6.45389">
        <ele>194.3</ele>
        <time>2018-03-18T15:14:39Z</time>
      </trkpt>
      <trkpt lat="43.50799" lon="6.45385">
        <ele>194.8</ele>
        <time>2018-03-18T15:14:48Z</time>
      </trkpt>
      <trkpt lat="43.50808" lon="6.45384">
        <ele>194.8</ele>
        <time>2018-03-18T15:14:53Z</time>
      </trkpt>
      <trkpt lat="43.50817" lon="6.45381">
        <ele>194.8</ele>
        <time>2018-03-18T15:14:59Z</time>
      </trkpt>
      <trkpt lat="43.5083" lon="6.45375">
        <ele>195.8</ele>
        <time>2018-03-18T15:15:11Z</time>
      </trkpt>
      <trkpt lat="43.50842" lon="6.4537">
        <ele>196.3</ele>
        <time>2018-03-18T15:15:21Z</time>
      </trkpt>
      <trkpt lat="43.50854" lon="6.45362">
        <ele>196.3</ele>
        <time>2018-03-18T15:15:30Z</time>
      </trkpt>
      <trkpt lat="43.50873" lon="6.45349">
        <ele>197.2</ele>
        <time>2018-03-18T15:15:42Z</time>
      </trkpt>
      <trkpt lat="43.50887" lon="6.45342">
        <ele>197.7</ele>
        <time>2018-03-18T15:15:52Z</time>
      </trkpt>
      <trkpt lat="43.50899" lon="6.45334">
        <ele>198.2</ele>
        <time>2018-03-18T15:16:03Z</time>
      </trkpt>
      <trkpt lat="43.50915" lon="6.45329">
        <ele>198.6</ele>
        <time>2018-03-18T15:16:14Z</time>
      </trkpt>
      <trkpt lat="43.50919" lon="6.45328">
        <ele>198.6</ele>
        <time>2018-03-18T15:16:17Z</time>
      </trkpt>
      <trkpt lat="43.50922" lon="6.45328">
        <ele>198.6</ele>
        <time>2018-03-18T15:16:19Z</time>
      </trkpt>
      <trkpt lat="43.50924" lon="6.45327">
        <ele>198.6</ele>
        <time>2018-03-18T15:16:21Z</time>
      </trkpt>
      <trkpt lat="43.50924" lon="6.45327">
        <ele>198.6</ele>
        <time>2018-03-18T15:16:33Z</time>
      </trkpt>
      <trkpt lat="43.50926" lon="6.45328">
        <ele>199.1</ele>
        <time>2018-03-18T15:16:43Z</time>
      </trkpt>
      <trkpt lat="43.50926" lon="6.4533">
        <ele>199.1</ele>
        <time>2018-03-18T15:16:52Z</time>
      </trkpt>
      <trkpt lat="43.50932" lon="6.45332">
        <ele>199.1</ele>
        <time>2018-03-18T15:16:59Z</time>
      </trkpt>
      <trkpt lat="43.50936" lon="6.45335">
        <ele>199.6</ele>
        <time>2018-03-18T15:17:04Z</time>
      </trkpt>
      <trkpt lat="43.50937" lon="6.45336">
        <ele>206.8</ele>
        <time>2018-03-18T15:17:05Z</time>
      </trkpt>
      <trkpt lat="43.50938" lon="6.45337">
        <ele>195.3</ele>
        <time>2018-03-18T15:17:06Z</time>
      </trkpt>
      <trkpt lat="43.50942" lon="6.45342">
        <ele>199.6</ele>
        <time>2018-03-18T15:17:10Z</time>
      </trkpt>
      <trkpt lat="43.50944" lon="6.45344">
        <ele>200.1</ele>
        <time>2018-03-18T15:17:12Z</time>
      </trkpt>
      <trkpt lat="43.50951" lon="6.45348">
        <ele>200.6</ele>
        <time>2018-03-18T15:17:18Z</time>
      </trkpt>
      <trkpt lat="43.5096" lon="6.45355">
        <ele>201.5</ele>
        <time>2018-03-18T15:17:27Z</time>
      </trkpt>
      <trkpt lat="43.50967" lon="6.4536">
        <ele>202</ele>
        <time>2018-03-18T15:17:35Z</time>
      </trkpt>
      <trkpt lat="43.50976" lon="6.45369">
        <ele>203</ele>
        <time>2018-03-18T15:17:45Z</time>
      </trkpt>
      <trkpt lat="43.50985" lon="6.45377">
        <ele>203.9</ele>
        <time>2018-03-18T15:17:55Z</time>
      </trkpt>
      <trkpt lat="43.50998" lon="6.4539">
        <ele>204.9</ele>
        <time>2018-03-18T15:18:07Z</time>
      </trkpt>
      <trkpt lat="43.51001" lon="6.45393">
        <ele>205.4</ele>
        <time>2018-03-18T15:18:10Z</time>
      </trkpt>
      <trkpt lat="43.51007" lon="6.45399">
        <ele>205.9</ele>
        <time>2018-03-18T15:18:16Z</time>
      </trkpt>
      <trkpt lat="43.51019" lon="6.45414">
        <ele>206.8</ele>
        <time>2018-03-18T15:18:25Z</time>
      </trkpt>
      <trkpt lat="43.51028" lon="6.45429">
        <ele>208.3</ele>
        <time>2018-03-18T15:18:35Z</time>
      </trkpt>
      <trkpt lat="43.5104" lon="6.45446">
        <ele>209.2</ele>
        <time>2018-03-18T15:18:47Z</time>
      </trkpt>
      <trkpt lat="43.51048" lon="6.45454">
        <ele>209.7</ele>
        <time>2018-03-18T15:18:56Z</time>
      </trkpt>
      <trkpt lat="43.51052" lon="6.45457">
        <ele>210.2</ele>
        <time>2018-03-18T15:18:59Z</time>
      </trkpt>
      <trkpt lat="43.51064" lon="6.4547">
        <ele>210.7</ele>
        <time>2018-03-18T15:19:10Z</time>
      </trkpt>
      <trkpt lat="43.51074" lon="6.45482">
        <ele>211.6</ele>
        <time>2018-03-18T15:19:20Z</time>
      </trkpt>
      <trkpt lat="43.51078" lon="6.45484">
        <ele>212.1</ele>
        <time>2018-03-18T15:19:23Z</time>
      </trkpt>
      <trkpt lat="43.5109" lon="6.45489">
        <ele>213.1</ele>
        <time>2018-03-18T15:19:32Z</time>
      </trkpt>
      <trkpt lat="43.51103" lon="6.45497">
        <ele>214</ele>
        <time>2018-03-18T15:19:42Z</time>
      </trkpt>
      <trkpt lat="43.51109" lon="6.455">
        <ele>215</ele>
        <time>2018-03-18T15:19:47Z</time>
      </trkpt>
      <trkpt lat="43.51113" lon="6.45503">
        <ele>215.5</ele>
        <time>2018-03-18T15:19:51Z</time>
      </trkpt>
      <trkpt lat="43.51123" lon="6.45509">
        <ele>216.4</ele>
        <time>2018-03-18T15:19:59Z</time>
      </trkpt>
      <trkpt lat="43.51125" lon="6.45512">
        <ele>216.9</ele>
        <time>2018-03-18T15:20:01Z</time>
      </trkpt>
      <trkpt lat="43.51135" lon="6.4552">
        <ele>217.9</ele>
        <time>2018-03-18T15:20:10Z</time>
      </trkpt>
      <trkpt lat="43.51142" lon="6.45528">
        <ele>218.8</ele>
        <time>2018-03-18T15:20:16Z</time>
      </trkpt>
      <trkpt lat="43.51149" lon="6.45535">
        <ele>219.8</ele>
        <time>2018-03-18T15:20:22Z</time>
      </trkpt>
      <trkpt lat="43.51158" lon="6.45542">
        <ele>220.8</ele>
        <time>2018-03-18T15:20:30Z</time>
      </trkpt>
      <trkpt lat="43.51167" lon="6.45549">
        <ele>222.2</ele>
        <time>2018-03-18T15:20:37Z</time>
      </trkpt>
      <trkpt lat="43.51172" lon="6.45555">
        <ele>222.7</ele>
        <time>2018-03-18T15:20:41Z</time>
      </trkpt>
      <trkpt lat="43.51172" lon="6.45556">
        <ele>223.2</ele>
        <time>2018-03-18T15:20:46Z</time>
      </trkpt>
      <trkpt lat="43.51183" lon="6.45572">
        <ele>224.1</ele>
        <time>2018-03-18T15:20:54Z</time>
      </trkpt>
      <trkpt lat="43.51185" lon="6.45581">
        <ele>225.1</ele>
        <time>2018-03-18T15:21:01Z</time>
      </trkpt>
      <trkpt lat="43.51193" lon="6.45594">
        <ele>225.6</ele>
        <time>2018-03-18T15:21:06Z</time>
      </trkpt>
      <trkpt lat="43.51192" lon="6.45597">
        <ele>226.1</ele>
        <time>2018-03-18T15:21:09Z</time>
      </trkpt>
      <trkpt lat="43.51191" lon="6.45598">
        <ele>226.1</ele>
        <time>2018-03-18T15:21:11Z</time>
      </trkpt>
      <trkpt lat="43.51196" lon="6.45616">
        <ele>226.5</ele>
        <time>2018-03-18T15:21:18Z</time>
      </trkpt>
      <trkpt lat="43.51197" lon="6.45616">
        <ele>227</ele>
        <time>2018-03-18T15:21:20Z</time>
      </trkpt>
      <trkpt lat="43.51201" lon="6.45627">
        <ele>228</ele>
        <time>2018-03-18T15:21:29Z</time>
      </trkpt>
      <trkpt lat="43.51202" lon="6.4563">
        <ele>228</ele>
        <time>2018-03-18T15:21:32Z</time>
      </trkpt>
      <trkpt lat="43.51202" lon="6.4563">
        <ele>228</ele>
        <time>2018-03-18T15:21:33Z</time>
      </trkpt>
      <trkpt lat="43.51204" lon="6.45644">
        <ele>228.9</ele>
        <time>2018-03-18T15:21:40Z</time>
      </trkpt>
      <trkpt lat="43.51204" lon="6.45648">
        <ele>228.9</ele>
        <time>2018-03-18T15:21:42Z</time>
      </trkpt>
      <trkpt lat="43.51203" lon="6.45649">
        <ele>229.9</ele>
        <time>2018-03-18T15:21:46Z</time>
      </trkpt>
      <trkpt lat="43.51206" lon="6.45667">
        <ele>230.9</ele>
        <time>2018-03-18T15:21:52Z</time>
      </trkpt>
      <trkpt lat="43.51205" lon="6.45669">
        <ele>231.3</ele>
        <time>2018-03-18T15:21:55Z</time>
      </trkpt>
      <trkpt lat="43.51203" lon="6.45682">
        <ele>232.3</ele>
        <time>2018-03-18T15:22:02Z</time>
      </trkpt>
      <trkpt lat="43.51204" lon="6.45683">
        <ele>232.3</ele>
        <time>2018-03-18T15:22:03Z</time>
      </trkpt>
      <trkpt lat="43.51198" lon="6.45692">
        <ele>233.3</ele>
        <time>2018-03-18T15:22:10Z</time>
      </trkpt>
      <trkpt lat="43.51198" lon="6.45693">
        <ele>233.7</ele>
        <time>2018-03-18T15:22:11Z</time>
      </trkpt>
      <trkpt lat="43.51196" lon="6.45707">
        <ele>234.7</ele>
        <time>2018-03-18T15:22:19Z</time>
      </trkpt>
      <trkpt lat="43.51194" lon="6.45711">
        <ele>235.7</ele>
        <time>2018-03-18T15:22:24Z</time>
      </trkpt>
      <trkpt lat="43.51194" lon="6.45722">
        <ele>236.1</ele>
        <time>2018-03-18T15:22:28Z</time>
      </trkpt>
      <trkpt lat="43.51194" lon="6.45723">
        <ele>236.1</ele>
        <time>2018-03-18T15:22:30Z</time>
      </trkpt>
      <trkpt lat="43.51195" lon="6.45736">
        <ele>237.6</ele>
        <time>2018-03-18T15:22:38Z</time>
      </trkpt>
      <trkpt lat="43.51195" lon="6.45739">
        <ele>238.1</ele>
        <time>2018-03-18T15:22:42Z</time>
      </trkpt>
      <trkpt lat="43.51189" lon="6.45757">
        <ele>240</ele>
        <time>2018-03-18T15:22:52Z</time>
      </trkpt>
      <trkpt lat="43.51187" lon="6.45764">
        <ele>240.5</ele>
        <time>2018-03-18T15:22:56Z</time>
      </trkpt>
      <trkpt lat="43.51187" lon="6.45783">
        <ele>244.8</ele>
        <time>2018-03-18T15:23:08Z</time>
      </trkpt>
      <trkpt lat="43.51189" lon="6.45789">
        <ele>241.4</ele>
        <time>2018-03-18T15:23:13Z</time>
      </trkpt>
      <trkpt lat="43.51189" lon="6.45792">
        <ele>240.5</ele>
        <time>2018-03-18T15:23:15Z</time>
      </trkpt>
      <trkpt lat="43.51189" lon="6.45794">
        <ele>244.8</ele>
        <time>2018-03-18T15:23:16Z</time>
      </trkpt>
      <trkpt lat="43.51189" lon="6.45798">
        <ele>242.4</ele>
        <time>2018-03-18T15:23:18Z</time>
      </trkpt>
      <trkpt lat="43.51194" lon="6.4581">
        <ele>242.9</ele>
        <time>2018-03-18T15:23:23Z</time>
      </trkpt>
      <trkpt lat="43.51194" lon="6.45811">
        <ele>242.9</ele>
        <time>2018-03-18T15:23:26Z</time>
      </trkpt>
      <trkpt lat="43.51198" lon="6.45823">
        <ele>243.4</ele>
        <time>2018-03-18T15:23:33Z</time>
      </trkpt>
      <trkpt lat="43.51208" lon="6.45838">
        <ele>244.3</ele>
        <time>2018-03-18T15:23:43Z</time>
      </trkpt>
      <trkpt lat="43.51218" lon="6.45845">
        <ele>244.3</ele>
        <time>2018-03-18T15:23:51Z</time>
      </trkpt>
      <trkpt lat="43.5122" lon="6.45847">
        <ele>243.8</ele>
        <time>2018-03-18T15:23:54Z</time>
      </trkpt>
      <trkpt lat="43.51225" lon="6.45849">
        <ele>243.8</ele>
        <time>2018-03-18T15:23:57Z</time>
      </trkpt>
      <trkpt lat="43.51225" lon="6.4585">
        <ele>244.3</ele>
        <time>2018-03-18T15:24:03Z</time>
      </trkpt>
      <trkpt lat="43.51225" lon="6.4585">
        <ele>248.2</ele>
        <time>2018-03-18T15:24:04Z</time>
      </trkpt>
      <trkpt lat="43.51226" lon="6.4585">
        <ele>243.8</ele>
        <time>2018-03-18T15:24:15Z</time>
      </trkpt>
      <trkpt lat="43.51226" lon="6.4585">
        <ele>244.3</ele>
        <time>2018-03-18T15:24:29Z</time>
      </trkpt>
      <trkpt lat="43.51226" lon="6.4585">
        <ele>244.3</ele>
        <time>2018-03-18T15:24:41Z</time>
      </trkpt>
      <trkpt lat="43.51235" lon="6.45854">
        <ele>243.8</ele>
        <time>2018-03-18T15:24:53Z</time>
      </trkpt>
      <trkpt lat="43.51237" lon="6.45855">
        <ele>243.8</ele>
        <time>2018-03-18T15:24:55Z</time>
      </trkpt>
      <trkpt lat="43.51248" lon="6.45863">
        <ele>243.4</ele>
        <time>2018-03-18T15:25:06Z</time>
      </trkpt>
      <trkpt lat="43.5125" lon="6.45863">
        <ele>243.4</ele>
        <time>2018-03-18T15:25:08Z</time>
      </trkpt>
      <trkpt lat="43.5125" lon="6.45864">
        <ele>243.4</ele>
        <time>2018-03-18T15:25:15Z</time>
      </trkpt>
      <trkpt lat="43.51251" lon="6.45864">
        <ele>242.9</ele>
        <time>2018-03-18T15:25:25Z</time>
      </trkpt>
      <trkpt lat="43.51251" lon="6.45865">
        <ele>242.9</ele>
        <time>2018-03-18T15:25:35Z</time>
      </trkpt>
      <trkpt lat="43.5125" lon="6.45865">
        <ele>243.4</ele>
        <time>2018-03-18T15:25:47Z</time>
      </trkpt>
      <trkpt lat="43.5125" lon="6.45865">
        <ele>243.4</ele>
        <time>2018-03-18T15:25:58Z</time>
      </trkpt>
      <trkpt lat="43.51251" lon="6.45865">
        <ele>247.7</ele>
        <time>2018-03-18T15:25:59Z</time>
      </trkpt>
      <trkpt lat="43.51251" lon="6.45865">
        <ele>243.4</ele>
        <time>2018-03-18T15:26:05Z</time>
      </trkpt>
      <trkpt lat="43.51254" lon="6.45867">
        <ele>242.4</ele>
        <time>2018-03-18T15:26:13Z</time>
      </trkpt>
      <trkpt lat="43.51264" lon="6.45878">
        <ele>240.9</ele>
        <time>2018-03-18T15:26:24Z</time>
      </trkpt>
      <trkpt lat="43.51267" lon="6.45884">
        <ele>240</ele>
        <time>2018-03-18T15:26:30Z</time>
      </trkpt>
      <trkpt lat="43.51269" lon="6.45887">
        <ele>239</ele>
        <time>2018-03-18T15:26:34Z</time>
      </trkpt>
      <trkpt lat="43.51279" lon="6.45892">
        <ele>237.6</ele>
        <time>2018-03-18T15:26:44Z</time>
      </trkpt>
      <trkpt lat="43.51278" lon="6.45892">
        <ele>238.1</ele>
        <time>2018-03-18T15:26:57Z</time>
      </trkpt>
      <trkpt lat="43.5128" lon="6.45898">
        <ele>237.6</ele>
        <time>2018-03-18T15:27:08Z</time>
      </trkpt>
      <trkpt lat="43.51281" lon="6.45899">
        <ele>237.1</ele>
        <time>2018-03-18T15:27:09Z</time>
      </trkpt>
      <trkpt lat="43.51292" lon="6.45915">
        <ele>237.1</ele>
        <time>2018-03-18T15:27:21Z</time>
      </trkpt>
      <trkpt lat="43.51303" lon="6.4593">
        <ele>237.1</ele>
        <time>2018-03-18T15:27:31Z</time>
      </trkpt>
      <trkpt lat="43.5131" lon="6.45948">
        <ele>237.1</ele>
        <time>2018-03-18T15:27:42Z</time>
      </trkpt>
      <trkpt lat="43.51313" lon="6.45963">
        <ele>238.1</ele>
        <time>2018-03-18T15:27:52Z</time>
      </trkpt>
      <trkpt lat="43.51315" lon="6.45969">
        <ele>238.5</ele>
        <time>2018-03-18T15:27:57Z</time>
      </trkpt>
      <trkpt lat="43.51316" lon="6.45975">
        <ele>239</ele>
        <time>2018-03-18T15:28:01Z</time>
      </trkpt>
      <trkpt lat="43.51318" lon="6.45981">
        <ele>239.5</ele>
        <time>2018-03-18T15:28:05Z</time>
      </trkpt>
      <trkpt lat="43.51323" lon="6.46001">
        <ele>240.5</ele>
        <time>2018-03-18T15:28:17Z</time>
      </trkpt>
      <trkpt lat="43.51334" lon="6.46012">
        <ele>240.9</ele>
        <time>2018-03-18T15:28:27Z</time>
      </trkpt>
      <trkpt lat="43.51348" lon="6.46019">
        <ele>239.5</ele>
        <time>2018-03-18T15:28:39Z</time>
      </trkpt>
      <trkpt lat="43.51353" lon="6.4603">
        <ele>238.5</ele>
        <time>2018-03-18T15:28:46Z</time>
      </trkpt>
      <trkpt lat="43.51353" lon="6.46049">
        <ele>236.6</ele>
        <time>2018-03-18T15:28:57Z</time>
      </trkpt>
      <trkpt lat="43.51353" lon="6.46071">
        <ele>236.1</ele>
        <time>2018-03-18T15:29:07Z</time>
      </trkpt>
      <trkpt lat="43.51357" lon="6.4609">
        <ele>235.7</ele>
        <time>2018-03-18T15:29:16Z</time>
      </trkpt>
      <trkpt lat="43.51358" lon="6.46101">
        <ele>235.7</ele>
        <time>2018-03-18T15:29:21Z</time>
      </trkpt>
      <trkpt lat="43.51358" lon="6.46117">
        <ele>236.1</ele>
        <time>2018-03-18T15:29:28Z</time>
      </trkpt>
      <trkpt lat="43.51355" lon="6.46126">
        <ele>236.1</ele>
        <time>2018-03-18T15:29:34Z</time>
      </trkpt>
      <trkpt lat="43.51349" lon="6.46136">
        <ele>236.1</ele>
        <time>2018-03-18T15:29:39Z</time>
      </trkpt>
      <trkpt lat="43.51345" lon="6.4615">
        <ele>236.6</ele>
        <time>2018-03-18T15:29:48Z</time>
      </trkpt>
      <trkpt lat="43.51344" lon="6.4616">
        <ele>238.1</ele>
        <time>2018-03-18T15:29:54Z</time>
      </trkpt>
      <trkpt lat="43.51341" lon="6.46175">
        <ele>239</ele>
        <time>2018-03-18T15:30:03Z</time>
      </trkpt>
      <trkpt lat="43.51337" lon="6.46198">
        <ele>240.9</ele>
        <time>2018-03-18T15:30:16Z</time>
      </trkpt>
      <trkpt lat="43.51337" lon="6.46203">
        <ele>240.9</ele>
        <time>2018-03-18T15:30:19Z</time>
      </trkpt>
      <trkpt lat="43.51337" lon="6.46208">
        <ele>240.9</ele>
        <time>2018-03-18T15:30:22Z</time>
      </trkpt>
      <trkpt lat="43.51335" lon="6.46215">
        <ele>241.4</ele>
        <time>2018-03-18T15:30:40Z</time>
      </trkpt>
      <trkpt lat="43.51331" lon="6.46227">
        <ele>241.4</ele>
        <time>2018-03-18T15:30:49Z</time>
      </trkpt>
      <trkpt lat="43.51331" lon="6.46244">
        <ele>240.5</ele>
        <time>2018-03-18T15:30:59Z</time>
      </trkpt>
      <trkpt lat="43.51331" lon="6.46267">
        <ele>239.5</ele>
        <time>2018-03-18T15:31:11Z</time>
      </trkpt>
      <trkpt lat="43.51332" lon="6.46284">
        <ele>237.6</ele>
        <time>2018-03-18T15:31:21Z</time>
      </trkpt>
      <trkpt lat="43.51331" lon="6.46291">
        <ele>237.6</ele>
        <time>2018-03-18T15:31:26Z</time>
      </trkpt>
      <trkpt lat="43.51331" lon="6.46292">
        <ele>241.9</ele>
        <time>2018-03-18T15:31:27Z</time>
      </trkpt>
      <trkpt lat="43.51331" lon="6.46294">
        <ele>234.7</ele>
        <time>2018-03-18T15:31:28Z</time>
      </trkpt>
      <trkpt lat="43.51325" lon="6.46308">
        <ele>235.7</ele>
        <time>2018-03-18T15:31:38Z</time>
      </trkpt>
      <trkpt lat="43.51321" lon="6.46319">
        <ele>233.7</ele>
        <time>2018-03-18T15:31:45Z</time>
      </trkpt>
      <trkpt lat="43.51319" lon="6.46324">
        <ele>233.7</ele>
        <time>2018-03-18T15:31:48Z</time>
      </trkpt>
      <trkpt lat="43.51317" lon="6.46335">
        <ele>232.8</ele>
        <time>2018-03-18T15:31:54Z</time>
      </trkpt>
      <trkpt lat="43.51315" lon="6.46341">
        <ele>233.3</ele>
        <time>2018-03-18T15:31:57Z</time>
      </trkpt>
      <trkpt lat="43.5131" lon="6.46354">
        <ele>231.8</ele>
        <time>2018-03-18T15:32:05Z</time>
      </trkpt>
      <trkpt lat="43.51309" lon="6.46361">
        <ele>231.3</ele>
        <time>2018-03-18T15:32:09Z</time>
      </trkpt>
      <trkpt lat="43.51308" lon="6.46365">
        <ele>231.3</ele>
        <time>2018-03-18T15:32:11Z</time>
      </trkpt>
      <trkpt lat="43.51305" lon="6.46377">
        <ele>230.4</ele>
        <time>2018-03-18T15:32:18Z</time>
      </trkpt>
      <trkpt lat="43.51305" lon="6.46381">
        <ele>230.9</ele>
        <time>2018-03-18T15:32:20Z</time>
      </trkpt>
      <trkpt lat="43.51305" lon="6.46399">
        <ele>229.4</ele>
        <time>2018-03-18T15:32:30Z</time>
      </trkpt>
      <trkpt lat="43.51302" lon="6.4641">
        <ele>228.9</ele>
        <time>2018-03-18T15:32:36Z</time>
      </trkpt>
      <trkpt lat="43.51302" lon="6.46427">
        <ele>229.4</ele>
        <time>2018-03-18T15:32:46Z</time>
      </trkpt>
      <trkpt lat="43.51301" lon="6.46431">
        <ele>229.4</ele>
        <time>2018-03-18T15:32:49Z</time>
      </trkpt>
      <trkpt lat="43.51299" lon="6.46446">
        <ele>229.4</ele>
        <time>2018-03-18T15:32:59Z</time>
      </trkpt>
      <trkpt lat="43.513" lon="6.46449">
        <ele>229.4</ele>
        <time>2018-03-18T15:33:12Z</time>
      </trkpt>
      <trkpt lat="43.51301" lon="6.46449">
        <ele>228.9</ele>
        <time>2018-03-18T15:33:36Z</time>
      </trkpt>
      <trkpt lat="43.513" lon="6.46452">
        <ele>228.9</ele>
        <time>2018-03-18T15:33:47Z</time>
      </trkpt>
      <trkpt lat="43.51298" lon="6.46455">
        <ele>229.4</ele>
        <time>2018-03-18T15:33:58Z</time>
      </trkpt>
      <trkpt lat="43.51299" lon="6.46455">
        <ele>229.9</ele>
        <time>2018-03-18T15:34:21Z</time>
      </trkpt>
      <trkpt lat="43.51297" lon="6.46458">
        <ele>230.4</ele>
        <time>2018-03-18T15:34:28Z</time>
      </trkpt>
      <trkpt lat="43.51296" lon="6.4646">
        <ele>231.3</ele>
        <time>2018-03-18T15:34:40Z</time>
      </trkpt>
      <trkpt lat="43.51296" lon="6.4646">
        <ele>228</ele>
        <time>2018-03-18T15:34:41Z</time>
      </trkpt>
      <trkpt lat="43.51296" lon="6.4646">
        <ele>235.2</ele>
        <time>2018-03-18T15:34:42Z</time>
      </trkpt>
      <trkpt lat="43.51297" lon="6.4646">
        <ele>226.1</ele>
        <time>2018-03-18T15:34:43Z</time>
      </trkpt>
      <trkpt lat="43.51297" lon="6.46459">
        <ele>234.2</ele>
        <time>2018-03-18T15:34:44Z</time>
      </trkpt>
      <trkpt lat="43.51297" lon="6.46459">
        <ele>229.9</ele>
        <time>2018-03-18T15:34:46Z</time>
      </trkpt>
      <trkpt lat="43.51297" lon="6.46459">
        <ele>233.3</ele>
        <time>2018-03-18T15:34:47Z</time>
      </trkpt>
      <trkpt lat="43.51302" lon="6.46457">
        <ele>229.9</ele>
        <time>2018-03-18T15:34:54Z</time>
      </trkpt>
      <trkpt lat="43.51304" lon="6.46456">
        <ele>229.4</ele>
        <time>2018-03-18T15:35:08Z</time>
      </trkpt>
      <trkpt lat="43.51313" lon="6.46464">
        <ele>228</ele>
        <time>2018-03-18T15:35:17Z</time>
      </trkpt>
      <trkpt lat="43.51322" lon="6.46473">
        <ele>227</ele>
        <time>2018-03-18T15:35:25Z</time>
      </trkpt>
      <trkpt lat="43.51323" lon="6.46474">
        <ele>226.5</ele>
        <time>2018-03-18T15:35:26Z</time>
      </trkpt>
      <trkpt lat="43.51329" lon="6.4648">
        <ele>225.6</ele>
        <time>2018-03-18T15:35:34Z</time>
      </trkpt>
      <trkpt lat="43.51335" lon="6.46483">
        <ele>224.1</ele>
        <time>2018-03-18T15:35:40Z</time>
      </trkpt>
      <trkpt lat="43.51336" lon="6.46486">
        <ele>223.6</ele>
        <time>2018-03-18T15:36:01Z</time>
      </trkpt>
      <trkpt lat="43.51348" lon="6.46488">
        <ele>222.7</ele>
        <time>2018-03-18T15:36:14Z</time>
      </trkpt>
      <trkpt lat="43.51356" lon="6.46485">
        <ele>221.7</ele>
        <time>2018-03-18T15:36:25Z</time>
      </trkpt>
      <trkpt lat="43.51365" lon="6.46483">
        <ele>220.3</ele>
        <time>2018-03-18T15:36:37Z</time>
      </trkpt>
      <trkpt lat="43.51372" lon="6.46473">
        <ele>218.8</ele>
        <time>2018-03-18T15:36:47Z</time>
      </trkpt>
      <trkpt lat="43.51376" lon="6.46464">
        <ele>217.4</ele>
        <time>2018-03-18T15:36:56Z</time>
      </trkpt>
      <trkpt lat="43.51381" lon="6.46455">
        <ele>215.5</ele>
        <time>2018-03-18T15:37:05Z</time>
      </trkpt>
      <trkpt lat="43.5139" lon="6.46443">
        <ele>213.1</ele>
        <time>2018-03-18T15:37:16Z</time>
      </trkpt>
      <trkpt lat="43.51399" lon="6.46436">
        <ele>211.6</ele>
        <time>2018-03-18T15:37:25Z</time>
      </trkpt>
      <trkpt lat="43.51406" lon="6.46431">
        <ele>209.7</ele>
        <time>2018-03-18T15:37:35Z</time>
      </trkpt>
      <trkpt lat="43.51416" lon="6.46425">
        <ele>207.3</ele>
        <time>2018-03-18T15:37:46Z</time>
      </trkpt>
      <trkpt lat="43.51427" lon="6.46421">
        <ele>205.4</ele>
        <time>2018-03-18T15:37:56Z</time>
      </trkpt>
      <trkpt lat="43.5144" lon="6.46421">
        <ele>204.4</ele>
        <time>2018-03-18T15:38:06Z</time>
      </trkpt>
      <trkpt lat="43.51449" lon="6.46423">
        <ele>204.9</ele>
        <time>2018-03-18T15:38:11Z</time>
      </trkpt>
      <trkpt lat="43.51454" lon="6.46425">
        <ele>204.4</ele>
        <time>2018-03-18T15:38:15Z</time>
      </trkpt>
      <trkpt lat="43.51461" lon="6.4643">
        <ele>203.9</ele>
        <time>2018-03-18T15:38:21Z</time>
      </trkpt>
      <trkpt lat="43.51468" lon="6.46437">
        <ele>204.4</ele>
        <time>2018-03-18T15:38:29Z</time>
      </trkpt>
      <trkpt lat="43.5148" lon="6.4644">
        <ele>202.5</ele>
        <time>2018-03-18T15:38:39Z</time>
      </trkpt>
      <trkpt lat="43.51485" lon="6.46443">
        <ele>201.5</ele>
        <time>2018-03-18T15:38:46Z</time>
      </trkpt>
      <trkpt lat="43.51492" lon="6.46448">
        <ele>201.1</ele>
        <time>2018-03-18T15:38:54Z</time>
      </trkpt>
      <trkpt lat="43.51502" lon="6.46454">
        <ele>200.1</ele>
        <time>2018-03-18T15:39:03Z</time>
      </trkpt>
      <trkpt lat="43.51507" lon="6.46457">
        <ele>199.6</ele>
        <time>2018-03-18T15:39:07Z</time>
      </trkpt>
      <trkpt lat="43.51512" lon="6.46461">
        <ele>198.6</ele>
        <time>2018-03-18T15:39:12Z</time>
      </trkpt>
      <trkpt lat="43.51516" lon="6.46464">
        <ele>198.2</ele>
        <time>2018-03-18T15:39:15Z</time>
      </trkpt>
      <trkpt lat="43.51526" lon="6.46473">
        <ele>197.2</ele>
        <time>2018-03-18T15:39:24Z</time>
      </trkpt>
      <trkpt lat="43.51538" lon="6.46487">
        <ele>196.3</ele>
        <time>2018-03-18T15:39:34Z</time>
      </trkpt>
      <trkpt lat="43.5154" lon="6.46489">
        <ele>195.8</ele>
        <time>2018-03-18T15:39:36Z</time>
      </trkpt>
      <trkpt lat="43.51548" lon="6.46497">
        <ele>194.8</ele>
        <time>2018-03-18T15:39:45Z</time>
      </trkpt>
      <trkpt lat="43.51553" lon="6.46507">
        <ele>193.8</ele>
        <time>2018-03-18T15:39:54Z</time>
      </trkpt>
      <trkpt lat="43.51555" lon="6.4651">
        <ele>193.4</ele>
        <time>2018-03-18T15:39:56Z</time>
      </trkpt>
      <trkpt lat="43.51559" lon="6.46513">
        <ele>192.4</ele>
        <time>2018-03-18T15:39:59Z</time>
      </trkpt>
      <trkpt lat="43.51564" lon="6.46519">
        <ele>191.9</ele>
        <time>2018-03-18T15:40:04Z</time>
      </trkpt>
      <trkpt lat="43.51565" lon="6.46519">
        <ele>191.4</ele>
        <time>2018-03-18T15:40:06Z</time>
      </trkpt>
      <trkpt lat="43.51569" lon="6.46521">
        <ele>190.5</ele>
        <time>2018-03-18T15:40:14Z</time>
      </trkpt>
      <trkpt lat="43.5158" lon="6.46529">
        <ele>189.5</ele>
        <time>2018-03-18T15:40:22Z</time>
      </trkpt>
      <trkpt lat="43.51593" lon="6.46539">
        <ele>187.1</ele>
        <time>2018-03-18T15:40:34Z</time>
      </trkpt>
      <trkpt lat="43.51597" lon="6.46545">
        <ele>186.6</ele>
        <time>2018-03-18T15:40:38Z</time>
      </trkpt>
      <trkpt lat="43.51603" lon="6.46551">
        <ele>185.7</ele>
        <time>2018-03-18T15:40:43Z</time>
      </trkpt>
      <trkpt lat="43.51603" lon="6.46552">
        <ele>185.7</ele>
        <time>2018-03-18T15:40:45Z</time>
      </trkpt>
      <trkpt lat="43.5161" lon="6.46563">
        <ele>183.8</ele>
        <time>2018-03-18T15:40:56Z</time>
      </trkpt>
      <trkpt lat="43.51612" lon="6.46567">
        <ele>183.8</ele>
        <time>2018-03-18T15:40:58Z</time>
      </trkpt>
      <trkpt lat="43.51619" lon="6.4658">
        <ele>181.8</ele>
        <time>2018-03-18T15:41:07Z</time>
      </trkpt>
      <trkpt lat="43.51619" lon="6.46583">
        <ele>181.4</ele>
        <time>2018-03-18T15:41:10Z</time>
      </trkpt>
      <trkpt lat="43.51626" lon="6.46596">
        <ele>178.9</ele>
        <time>2018-03-18T15:41:21Z</time>
      </trkpt>
      <trkpt lat="43.5163" lon="6.46601">
        <ele>178.5</ele>
        <time>2018-03-18T15:41:25Z</time>
      </trkpt>
      <trkpt lat="43.51633" lon="6.46608">
        <ele>178</ele>
        <time>2018-03-18T15:41:29Z</time>
      </trkpt>
      <trkpt lat="43.51639" lon="6.46624">
        <ele>176.5</ele>
        <time>2018-03-18T15:41:40Z</time>
      </trkpt>
      <trkpt lat="43.51641" lon="6.46631">
        <ele>176.1</ele>
        <time>2018-03-18T15:41:43Z</time>
      </trkpt>
      <trkpt lat="43.51642" lon="6.46637">
        <ele>175.6</ele>
        <time>2018-03-18T15:41:47Z</time>
      </trkpt>
      <trkpt lat="43.5165" lon="6.46652">
        <ele>174.1</ele>
        <time>2018-03-18T15:41:56Z</time>
      </trkpt>
      <trkpt lat="43.51653" lon="6.46662">
        <ele>173.2</ele>
        <time>2018-03-18T15:42:02Z</time>
      </trkpt>
      <trkpt lat="43.5166" lon="6.46678">
        <ele>171.7</ele>
        <time>2018-03-18T15:42:11Z</time>
      </trkpt>
      <trkpt lat="43.51663" lon="6.46684">
        <ele>170.8</ele>
        <time>2018-03-18T15:42:15Z</time>
      </trkpt>
      <trkpt lat="43.51666" lon="6.46691">
        <ele>170.8</ele>
        <time>2018-03-18T15:42:18Z</time>
      </trkpt>
      <trkpt lat="43.51673" lon="6.46705">
        <ele>168.4</ele>
        <time>2018-03-18T15:42:28Z</time>
      </trkpt>
      <trkpt lat="43.51676" lon="6.46718">
        <ele>166.4</ele>
        <time>2018-03-18T15:42:37Z</time>
      </trkpt>
      <trkpt lat="43.5168" lon="6.46735">
        <ele>164.5</ele>
        <time>2018-03-18T15:42:46Z</time>
      </trkpt>
      <trkpt lat="43.51684" lon="6.46749">
        <ele>163.1</ele>
        <time>2018-03-18T15:42:55Z</time>
      </trkpt>
      <trkpt lat="43.51689" lon="6.46758">
        <ele>161.6</ele>
        <time>2018-03-18T15:43:01Z</time>
      </trkpt>
      <trkpt lat="43.51692" lon="6.46763">
        <ele>160.7</ele>
        <time>2018-03-18T15:43:06Z</time>
      </trkpt>
      <trkpt lat="43.51693" lon="6.46767">
        <ele>160.2</ele>
        <time>2018-03-18T15:43:09Z</time>
      </trkpt>
      <trkpt lat="43.51696" lon="6.46775">
        <ele>158.8</ele>
        <time>2018-03-18T15:43:17Z</time>
      </trkpt>
      <trkpt lat="43.51697" lon="6.46777">
        <ele>158.8</ele>
        <time>2018-03-18T15:43:19Z</time>
      </trkpt>
      <trkpt lat="43.51699" lon="6.46786">
        <ele>157.8</ele>
        <time>2018-03-18T15:43:24Z</time>
      </trkpt>
      <trkpt lat="43.51698" lon="6.46795">
        <ele>157.8</ele>
        <time>2018-03-18T15:43:31Z</time>
      </trkpt>
      <trkpt lat="43.51695" lon="6.46795">
        <ele>157.8</ele>
        <time>2018-03-18T15:43:36Z</time>
      </trkpt>
      <trkpt lat="43.51685" lon="6.46793">
        <ele>157.8</ele>
        <time>2018-03-18T15:43:45Z</time>
      </trkpt>
      <trkpt lat="43.51667" lon="6.46799">
        <ele>160.7</ele>
        <time>2018-03-18T15:43:58Z</time>
      </trkpt>
      <trkpt lat="43.51657" lon="6.46805">
        <ele>162.1</ele>
        <time>2018-03-18T15:44:07Z</time>
      </trkpt>
      <trkpt lat="43.51651" lon="6.46806">
        <ele>163.6</ele>
        <time>2018-03-18T15:44:10Z</time>
      </trkpt>
      <trkpt lat="43.51634" lon="6.46812">
        <ele>164.5</ele>
        <time>2018-03-18T15:44:20Z</time>
      </trkpt>
      <trkpt lat="43.51621" lon="6.46817">
        <ele>166</ele>
        <time>2018-03-18T15:44:30Z</time>
      </trkpt>
      <trkpt lat="43.51613" lon="6.46825">
        <ele>167.9</ele>
        <time>2018-03-18T15:44:39Z</time>
      </trkpt>
      <trkpt lat="43.51609" lon="6.46829">
        <ele>168.4</ele>
        <time>2018-03-18T15:44:44Z</time>
      </trkpt>
      <trkpt lat="43.51601" lon="6.46836">
        <ele>169.8</ele>
        <time>2018-03-18T15:44:54Z</time>
      </trkpt>
      <trkpt lat="43.51596" lon="6.46845">
        <ele>170.8</ele>
        <time>2018-03-18T15:45:03Z</time>
      </trkpt>
      <trkpt lat="43.51588" lon="6.46856">
        <ele>169.3</ele>
        <time>2018-03-18T15:45:14Z</time>
      </trkpt>
      <trkpt lat="43.51584" lon="6.46863">
        <ele>168.9</ele>
        <time>2018-03-18T15:45:20Z</time>
      </trkpt>
      <trkpt lat="43.51582" lon="6.46874">
        <ele>166.9</ele>
        <time>2018-03-18T15:45:29Z</time>
      </trkpt>
      <trkpt lat="43.51577" lon="6.46885">
        <ele>163.6</ele>
        <time>2018-03-18T15:45:39Z</time>
      </trkpt>
      <trkpt lat="43.5157" lon="6.46901">
        <ele>162.1</ele>
        <time>2018-03-18T15:45:49Z</time>
      </trkpt>
      <trkpt lat="43.5157" lon="6.46906">
        <ele>160.7</ele>
        <time>2018-03-18T15:45:53Z</time>
      </trkpt>
      <trkpt lat="43.51566" lon="6.46918">
        <ele>158.8</ele>
        <time>2018-03-18T15:46:03Z</time>
      </trkpt>
      <trkpt lat="43.51566" lon="6.46921">
        <ele>156.4</ele>
        <time>2018-03-18T15:46:12Z</time>
      </trkpt>
      <trkpt lat="43.51561" lon="6.46931">
        <ele>154.9</ele>
        <time>2018-03-18T15:46:22Z</time>
      </trkpt>
      <trkpt lat="43.51559" lon="6.46934">
        <ele>154.9</ele>
        <time>2018-03-18T15:46:29Z</time>
      </trkpt>
      <trkpt lat="43.51559" lon="6.46934">
        <ele>156.8</ele>
        <time>2018-03-18T15:46:32Z</time>
      </trkpt>
      <trkpt lat="43.51559" lon="6.46934">
        <ele>150.6</ele>
        <time>2018-03-18T15:46:33Z</time>
      </trkpt>
      <trkpt lat="43.51554" lon="6.46935">
        <ele>154.9</ele>
        <time>2018-03-18T15:46:50Z</time>
      </trkpt>
      <trkpt lat="43.51546" lon="6.46938">
        <ele>153.5</ele>
        <time>2018-03-18T15:46:58Z</time>
      </trkpt>
      <trkpt lat="43.51538" lon="6.46947">
        <ele>153</ele>
        <time>2018-03-18T15:47:08Z</time>
      </trkpt>
      <trkpt lat="43.51536" lon="6.46957">
        <ele>152</ele>
        <time>2018-03-18T15:47:13Z</time>
      </trkpt>
      <trkpt lat="43.51534" lon="6.46962">
        <ele>152</ele>
        <time>2018-03-18T15:47:16Z</time>
      </trkpt>
      <trkpt lat="43.51526" lon="6.46973">
        <ele>151.5</ele>
        <time>2018-03-18T15:47:27Z</time>
      </trkpt>
      <trkpt lat="43.51517" lon="6.46983">
        <ele>151.1</ele>
        <time>2018-03-18T15:47:35Z</time>
      </trkpt>
      <trkpt lat="43.51514" lon="6.46986">
        <ele>151.1</ele>
        <time>2018-03-18T15:47:38Z</time>
      </trkpt>
      <trkpt lat="43.51509" lon="6.46989">
        <ele>150.6</ele>
        <time>2018-03-18T15:47:42Z</time>
      </trkpt>
      <trkpt lat="43.51505" lon="6.46994">
        <ele>150.6</ele>
        <time>2018-03-18T15:47:46Z</time>
      </trkpt>
      <trkpt lat="43.51502" lon="6.46998">
        <ele>150.6</ele>
        <time>2018-03-18T15:47:50Z</time>
      </trkpt>
      <trkpt lat="43.51497" lon="6.47003">
        <ele>150.1</ele>
        <time>2018-03-18T15:47:55Z</time>
      </trkpt>
      <trkpt lat="43.51493" lon="6.47008">
        <ele>150.1</ele>
        <time>2018-03-18T15:48:00Z</time>
      </trkpt>
      <trkpt lat="43.5148" lon="6.4702">
        <ele>149.6</ele>
        <time>2018-03-18T15:48:11Z</time>
      </trkpt>
      <trkpt lat="43.51476" lon="6.47025">
        <ele>149.1</ele>
        <time>2018-03-18T15:48:15Z</time>
      </trkpt>
      <trkpt lat="43.51468" lon="6.47038">
        <ele>149.6</ele>
        <time>2018-03-18T15:48:23Z</time>
      </trkpt>
      <trkpt lat="43.51465" lon="6.47043">
        <ele>149.6</ele>
        <time>2018-03-18T15:48:26Z</time>
      </trkpt>
      <trkpt lat="43.51455" lon="6.47058">
        <ele>150.6</ele>
        <time>2018-03-18T15:48:35Z</time>
      </trkpt>
      <trkpt lat="43.51445" lon="6.47072">
        <ele>151.1</ele>
        <time>2018-03-18T15:48:45Z</time>
      </trkpt>
      <trkpt lat="43.51434" lon="6.47087">
        <ele>151.5</ele>
        <time>2018-03-18T15:48:57Z</time>
      </trkpt>
      <trkpt lat="43.5143" lon="6.47092">
        <ele>151.5</ele>
        <time>2018-03-18T15:49:01Z</time>
      </trkpt>
      <trkpt lat="43.51428" lon="6.47095">
        <ele>151.5</ele>
        <time>2018-03-18T15:49:03Z</time>
      </trkpt>
      <trkpt lat="43.51419" lon="6.47103">
        <ele>152.5</ele>
        <time>2018-03-18T15:49:12Z</time>
      </trkpt>
      <trkpt lat="43.51406" lon="6.47119">
        <ele>152.5</ele>
        <time>2018-03-18T15:49:25Z</time>
      </trkpt>
      <trkpt lat="43.51401" lon="6.47125">
        <ele>153</ele>
        <time>2018-03-18T15:49:30Z</time>
      </trkpt>
      <trkpt lat="43.51397" lon="6.47133">
        <ele>153</ele>
        <time>2018-03-18T15:49:36Z</time>
      </trkpt>
      <trkpt lat="43.51391" lon="6.47138">
        <ele>153.5</ele>
        <time>2018-03-18T15:49:41Z</time>
      </trkpt>
      <trkpt lat="43.51382" lon="6.47153">
        <ele>153.9</ele>
        <time>2018-03-18T15:49:52Z</time>
      </trkpt>
      <trkpt lat="43.51382" lon="6.47154">
        <ele>153.9</ele>
        <time>2018-03-18T15:50:05Z</time>
      </trkpt>
      <trkpt lat="43.51376" lon="6.47155">
        <ele>153.9</ele>
        <time>2018-03-18T15:50:20Z</time>
      </trkpt>
      <trkpt lat="43.51351" lon="6.47156">
        <ele>153.9</ele>
        <time>2018-03-18T15:50:37Z</time>
      </trkpt>
      <trkpt lat="43.51346" lon="6.47157">
        <ele>153.9</ele>
        <time>2018-03-18T15:50:46Z</time>
      </trkpt>
      <trkpt lat="43.51345" lon="6.47158">
        <ele>155.9</ele>
        <time>2018-03-18T15:50:47Z</time>
      </trkpt>
      <trkpt lat="43.51344" lon="6.47159">
        <ele>152.5</ele>
        <time>2018-03-18T15:50:48Z</time>
      </trkpt>
      <trkpt lat="43.51343" lon="6.4716">
        <ele>153.5</ele>
        <time>2018-03-18T15:50:50Z</time>
      </trkpt>
      <trkpt lat="43.51337" lon="6.47165">
        <ele>153.9</ele>
        <time>2018-03-18T15:50:59Z</time>
      </trkpt>
      <trkpt lat="43.51333" lon="6.47173">
        <ele>153.9</ele>
        <time>2018-03-18T15:51:04Z</time>
      </trkpt>
      <trkpt lat="43.51324" lon="6.47184">
        <ele>153.5</ele>
        <time>2018-03-18T15:51:11Z</time>
      </trkpt>
      <trkpt lat="43.5132" lon="6.47191">
        <ele>153.9</ele>
        <time>2018-03-18T15:51:14Z</time>
      </trkpt>
      <trkpt lat="43.51307" lon="6.47202">
        <ele>153.9</ele>
        <time>2018-03-18T15:51:23Z</time>
      </trkpt>
      <trkpt lat="43.51301" lon="6.47209">
        <ele>153.5</ele>
        <time>2018-03-18T15:51:28Z</time>
      </trkpt>
      <trkpt lat="43.51297" lon="6.47211">
        <ele>153.9</ele>
        <time>2018-03-18T15:51:31Z</time>
      </trkpt>
      <trkpt lat="43.5129" lon="6.47217">
        <ele>153.9</ele>
        <time>2018-03-18T15:51:36Z</time>
      </trkpt>
      <trkpt lat="43.51279" lon="6.4723">
        <ele>153.5</ele>
        <time>2018-03-18T15:51:45Z</time>
      </trkpt>
      <trkpt lat="43.51262" lon="6.47248">
        <ele>153.5</ele>
        <time>2018-03-18T15:51:57Z</time>
      </trkpt>
      <trkpt lat="43.51241" lon="6.47269">
        <ele>153.5</ele>
        <time>2018-03-18T15:52:09Z</time>
      </trkpt>
      <trkpt lat="43.51229" lon="6.47276">
        <ele>153.5</ele>
        <time>2018-03-18T15:52:18Z</time>
      </trkpt>
      <trkpt lat="43.51226" lon="6.47281">
        <ele>154.4</ele>
        <time>2018-03-18T15:52:27Z</time>
      </trkpt>
      <trkpt lat="43.51225" lon="6.47282">
        <ele>150.6</ele>
        <time>2018-03-18T15:52:28Z</time>
      </trkpt>
      <trkpt lat="43.51216" lon="6.47291">
        <ele>153</ele>
        <time>2018-03-18T15:52:35Z</time>
      </trkpt>
      <trkpt lat="43.51212" lon="6.47293">
        <ele>153</ele>
        <time>2018-03-18T15:52:38Z</time>
      </trkpt>
      <trkpt lat="43.51199" lon="6.47301">
        <ele>153</ele>
        <time>2018-03-18T15:52:49Z</time>
      </trkpt>
      <trkpt lat="43.51197" lon="6.47303">
        <ele>153.5</ele>
        <time>2018-03-18T15:52:52Z</time>
      </trkpt>
      <trkpt lat="43.51192" lon="6.47306">
        <ele>153</ele>
        <time>2018-03-18T15:52:58Z</time>
      </trkpt>
      <trkpt lat="43.51179" lon="6.47314">
        <ele>153</ele>
        <time>2018-03-18T15:53:08Z</time>
      </trkpt>
      <trkpt lat="43.51165" lon="6.47323">
        <ele>153</ele>
        <time>2018-03-18T15:53:18Z</time>
      </trkpt>
      <trkpt lat="43.51152" lon="6.4733">
        <ele>153</ele>
        <time>2018-03-18T15:53:30Z</time>
      </trkpt>
      <trkpt lat="43.51138" lon="6.4734">
        <ele>153</ele>
        <time>2018-03-18T15:53:40Z</time>
      </trkpt>
      <trkpt lat="43.51123" lon="6.47349">
        <ele>153</ele>
        <time>2018-03-18T15:53:51Z</time>
      </trkpt>
      <trkpt lat="43.51106" lon="6.4736">
        <ele>152.5</ele>
        <time>2018-03-18T15:54:02Z</time>
      </trkpt>
      <trkpt lat="43.51091" lon="6.47368">
        <ele>152.5</ele>
        <time>2018-03-18T15:54:12Z</time>
      </trkpt>
      <trkpt lat="43.5108" lon="6.47374">
        <ele>152.5</ele>
        <time>2018-03-18T15:54:23Z</time>
      </trkpt>
      <trkpt lat="43.51066" lon="6.47382">
        <ele>152.5</ele>
        <time>2018-03-18T15:54:34Z</time>
      </trkpt>
      <trkpt lat="43.51051" lon="6.47393">
        <ele>152.5</ele>
        <time>2018-03-18T15:54:45Z</time>
      </trkpt>
      <trkpt lat="43.51035" lon="6.47406">
        <ele>152.5</ele>
        <time>2018-03-18T15:54:57Z</time>
      </trkpt>
      <trkpt lat="43.51017" lon="6.47415">
        <ele>152.5</ele>
        <time>2018-03-18T15:55:10Z</time>
      </trkpt>
      <trkpt lat="43.51002" lon="6.47424">
        <ele>152.5</ele>
        <time>2018-03-18T15:55:20Z</time>
      </trkpt>
      <trkpt lat="43.50995" lon="6.47432">
        <ele>152.5</ele>
        <time>2018-03-18T15:55:28Z</time>
      </trkpt>
      <trkpt lat="43.50991" lon="6.47436">
        <ele>152.5</ele>
        <time>2018-03-18T15:55:31Z</time>
      </trkpt>
      <trkpt lat="43.50978" lon="6.47445">
        <ele>152.5</ele>
        <time>2018-03-18T15:55:41Z</time>
      </trkpt>
      <trkpt lat="43.50974" lon="6.47447">
        <ele>152.5</ele>
        <time>2018-03-18T15:55:44Z</time>
      </trkpt>
      <trkpt lat="43.50965" lon="6.47455">
        <ele>152.5</ele>
        <time>2018-03-18T15:55:51Z</time>
      </trkpt>
      <trkpt lat="43.5095" lon="6.47466">
        <ele>152.5</ele>
        <time>2018-03-18T15:56:02Z</time>
      </trkpt>
      <trkpt lat="43.50936" lon="6.47474">
        <ele>152</ele>
        <time>2018-03-18T15:56:13Z</time>
      </trkpt>
      <trkpt lat="43.50925" lon="6.47482">
        <ele>152</ele>
        <time>2018-03-18T15:56:22Z</time>
      </trkpt>
      <trkpt lat="43.50912" lon="6.47491">
        <ele>152</ele>
        <time>2018-03-18T15:56:31Z</time>
      </trkpt>
      <trkpt lat="43.50898" lon="6.47502">
        <ele>152</ele>
        <time>2018-03-18T15:56:43Z</time>
      </trkpt>
      <trkpt lat="43.50886" lon="6.47512">
        <ele>152</ele>
        <time>2018-03-18T15:56:54Z</time>
      </trkpt>
      <trkpt lat="43.50871" lon="6.47525">
        <ele>151.5</ele>
        <time>2018-03-18T15:57:06Z</time>
      </trkpt>
      <trkpt lat="43.50858" lon="6.47539">
        <ele>151.5</ele>
        <time>2018-03-18T15:57:18Z</time>
      </trkpt>
      <trkpt lat="43.50845" lon="6.47552">
        <ele>151.5</ele>
        <time>2018-03-18T15:57:30Z</time>
      </trkpt>
      <trkpt lat="43.50829" lon="6.47564">
        <ele>151.1</ele>
        <time>2018-03-18T15:57:41Z</time>
      </trkpt>
      <trkpt lat="43.50816" lon="6.47578">
        <ele>151.1</ele>
        <time>2018-03-18T15:57:53Z</time>
      </trkpt>
      <trkpt lat="43.50805" lon="6.47592">
        <ele>151.1</ele>
        <time>2018-03-18T15:58:02Z</time>
      </trkpt>
      <trkpt lat="43.50789" lon="6.47607">
        <ele>151.1</ele>
        <time>2018-03-18T15:58:13Z</time>
      </trkpt>
      <trkpt lat="43.5078" lon="6.47615">
        <ele>151.1</ele>
        <time>2018-03-18T15:58:19Z</time>
      </trkpt>
      <trkpt lat="43.50779" lon="6.47617">
        <ele>151.5</ele>
        <time>2018-03-18T15:58:20Z</time>
      </trkpt>
      <trkpt lat="43.50765" lon="6.47632">
        <ele>151.5</ele>
        <time>2018-03-18T15:58:30Z</time>
      </trkpt>
      <trkpt lat="43.50762" lon="6.47637">
        <ele>152.5</ele>
        <time>2018-03-18T15:58:33Z</time>
      </trkpt>
      <trkpt lat="43.50755" lon="6.47649">
        <ele>151.1</ele>
        <time>2018-03-18T15:58:39Z</time>
      </trkpt>
      <trkpt lat="43.50751" lon="6.47654">
        <ele>151.1</ele>
        <time>2018-03-18T15:58:43Z</time>
      </trkpt>
      <trkpt lat="43.50741" lon="6.47668">
        <ele>151.5</ele>
        <time>2018-03-18T15:58:53Z</time>
      </trkpt>
      <trkpt lat="43.50733" lon="6.47684">
        <ele>150.6</ele>
        <time>2018-03-18T15:59:03Z</time>
      </trkpt>
      <trkpt lat="43.50725" lon="6.47699">
        <ele>150.6</ele>
        <time>2018-03-18T15:59:13Z</time>
      </trkpt>
      <trkpt lat="43.5072" lon="6.47708">
        <ele>150.6</ele>
        <time>2018-03-18T15:59:18Z</time>
      </trkpt>
      <trkpt lat="43.50718" lon="6.47713">
        <ele>150.6</ele>
        <time>2018-03-18T15:59:21Z</time>
      </trkpt>
      <trkpt lat="43.50705" lon="6.47731">
        <ele>150.6</ele>
        <time>2018-03-18T15:59:33Z</time>
      </trkpt>
      <trkpt lat="43.50696" lon="6.47747">
        <ele>150.6</ele>
        <time>2018-03-18T15:59:43Z</time>
      </trkpt>
      <trkpt lat="43.50687" lon="6.47762">
        <ele>150.6</ele>
        <time>2018-03-18T15:59:53Z</time>
      </trkpt>
      <trkpt lat="43.50676" lon="6.47781">
        <ele>150.1</ele>
        <time>2018-03-18T16:00:04Z</time>
      </trkpt>
      <trkpt lat="43.50666" lon="6.47799">
        <ele>151.1</ele>
        <time>2018-03-18T16:00:16Z</time>
      </trkpt>
      <trkpt lat="43.5066" lon="6.47812">
        <ele>151.1</ele>
        <time>2018-03-18T16:00:24Z</time>
      </trkpt>
      <trkpt lat="43.50657" lon="6.47818">
        <ele>151.1</ele>
        <time>2018-03-18T16:00:28Z</time>
      </trkpt>
      <trkpt lat="43.50654" lon="6.47826">
        <ele>151.1</ele>
        <time>2018-03-18T16:00:32Z</time>
      </trkpt>
      <trkpt lat="43.5065" lon="6.47831">
        <ele>151.5</ele>
        <time>2018-03-18T16:00:35Z</time>
      </trkpt>
      <trkpt lat="43.50646" lon="6.47844">
        <ele>151.1</ele>
        <time>2018-03-18T16:00:44Z</time>
      </trkpt>
      <trkpt lat="43.50639" lon="6.47857">
        <ele>151.5</ele>
        <time>2018-03-18T16:00:52Z</time>
      </trkpt>
      <trkpt lat="43.50632" lon="6.47878">
        <ele>152.5</ele>
        <time>2018-03-18T16:01:03Z</time>
      </trkpt>
      <trkpt lat="43.50626" lon="6.4789">
        <ele>153</ele>
        <time>2018-03-18T16:01:10Z</time>
      </trkpt>
      <trkpt lat="43.5062" lon="6.47905">
        <ele>156.4</ele>
        <time>2018-03-18T16:01:20Z</time>
      </trkpt>
      <trkpt lat="43.50611" lon="6.47919">
        <ele>159.2</ele>
        <time>2018-03-18T16:01:29Z</time>
      </trkpt>
      <trkpt lat="43.50608" lon="6.47927">
        <ele>160.7</ele>
        <time>2018-03-18T16:01:33Z</time>
      </trkpt>
      <trkpt lat="43.50604" lon="6.47943">
        <ele>164</ele>
        <time>2018-03-18T16:01:41Z</time>
      </trkpt>
      <trkpt lat="43.50599" lon="6.47957">
        <ele>167.4</ele>
        <time>2018-03-18T16:01:50Z</time>
      </trkpt>
      <trkpt lat="43.50596" lon="6.47964">
        <ele>169.8</ele>
        <time>2018-03-18T16:01:54Z</time>
      </trkpt>
      <trkpt lat="43.50592" lon="6.47972">
        <ele>173.2</ele>
        <time>2018-03-18T16:01:59Z</time>
      </trkpt>
      <trkpt lat="43.50586" lon="6.4798">
        <ele>177</ele>
        <time>2018-03-18T16:02:05Z</time>
      </trkpt>
      <trkpt lat="43.50581" lon="6.47991">
        <ele>179.9</ele>
        <time>2018-03-18T16:02:13Z</time>
      </trkpt>
      <trkpt lat="43.50576" lon="6.48">
        <ele>185.7</ele>
        <time>2018-03-18T16:02:19Z</time>
      </trkpt>
      <trkpt lat="43.50575" lon="6.48001">
        <ele>186.6</ele>
        <time>2018-03-18T16:02:20Z</time>
      </trkpt>
      <trkpt lat="43.50574" lon="6.48008">
        <ele>191.4</ele>
        <time>2018-03-18T16:02:24Z</time>
      </trkpt>
      <trkpt lat="43.50572" lon="6.48011">
        <ele>194.3</ele>
        <time>2018-03-18T16:02:26Z</time>
      </trkpt>
      <trkpt lat="43.50571" lon="6.48013">
        <ele>197.7</ele>
        <time>2018-03-18T16:02:28Z</time>
      </trkpt>
      <trkpt lat="43.50569" lon="6.48015">
        <ele>200.1</ele>
        <time>2018-03-18T16:02:30Z</time>
      </trkpt>
      <trkpt lat="43.50566" lon="6.48018">
        <ele>204.9</ele>
        <time>2018-03-18T16:02:33Z</time>
      </trkpt>
      <trkpt lat="43.50565" lon="6.48021">
        <ele>207.8</ele>
        <time>2018-03-18T16:02:35Z</time>
      </trkpt>
      <trkpt lat="43.50564" lon="6.48022">
        <ele>211.6</ele>
        <time>2018-03-18T16:02:37Z</time>
      </trkpt>
      <trkpt lat="43.50563" lon="6.48024">
        <ele>215.5</ele>
        <time>2018-03-18T16:02:39Z</time>
      </trkpt>
      <trkpt lat="43.50564" lon="6.48026">
        <ele>218.8</ele>
        <time>2018-03-18T16:02:41Z</time>
      </trkpt>
      <trkpt lat="43.50564" lon="6.48026">
        <ele>225.6</ele>
        <time>2018-03-18T16:02:42Z</time>
      </trkpt>
      <trkpt lat="43.50565" lon="6.48028">
        <ele>222.7</ele>
        <time>2018-03-18T16:02:43Z</time>
      </trkpt>
      <trkpt lat="43.50582" lon="6.48048">
        <ele>226.5</ele>
        <time>2018-03-18T16:02:46Z</time>
      </trkpt>
      <trkpt lat="43.50582" lon="6.48048">
        <ele>229.4</ele>
        <time>2018-03-18T16:02:47Z</time>
      </trkpt>
      <trkpt lat="43.50583" lon="6.48049">
        <ele>234.2</ele>
        <time>2018-03-18T16:02:49Z</time>
      </trkpt>
    </trkseg>
  </trk>
</gpx>